<?xml version="1.0" encoding="UTF-8" standalone="no" ?>
<gpx xmlns="http://www.topografix.com/GPX/1/1" xmlns:xsi="http://www.w3.org/2001/XMLSchema-instance" xsi:schemaLocation="http://www.topografix.com/GPX/1/1 http://www.topografix.com/GPX/1/1/gpx.xsd" version="1.1" creator="VisuGPX - https://www.visugpx.com">
  <metadata>
    <name>Virgule</name>
    <desc><![CDATA[
]]></desc>
  </metadata>
  <trk>
    <name><![CDATA[Virgule_1]]></name>
    <extensions>
      <line xmlns="http://www.topografix.com/GPX/gpx_style/0/2">
        <color>0000FF</color>
        <width>4</width>
      </line>
    </extensions>
    <trkseg>
      <trkpt lat="45.35584" lon="5.91855">
        <ele>1073.4599609375</ele>
        <time>2017-12-19T11:31:31Z</time>
      </trkpt>
      <trkpt lat="45.35592" lon="5.9184">
        <ele>1085.4599609375</ele>
        <time>2017-12-19T11:31:32Z</time>
      </trkpt>
      <trkpt lat="45.35593" lon="5.91848">
        <ele>1068.4599609375</ele>
        <time>2017-12-19T11:31:34Z</time>
      </trkpt>
      <trkpt lat="45.35589" lon="5.91841">
        <ele>1066.4599609375</ele>
        <time>2017-12-19T11:31:45Z</time>
      </trkpt>
      <trkpt lat="45.35591" lon="5.91833">
        <ele>1069.4599609375</ele>
        <time>2017-12-19T11:31:49Z</time>
      </trkpt>
      <trkpt lat="45.35592" lon="5.91825">
        <ele>1068.4599609375</ele>
        <time>2017-12-19T11:31:53Z</time>
      </trkpt>
      <trkpt lat="45.35591" lon="5.91816">
        <ele>1066.4599609375</ele>
        <time>2017-12-19T11:31:57Z</time>
      </trkpt>
      <trkpt lat="45.35591" lon="5.91809">
        <ele>1069.4599609375</ele>
        <time>2017-12-19T11:32:00Z</time>
      </trkpt>
      <trkpt lat="45.35592" lon="5.918">
        <ele>1070.4599609375</ele>
        <time>2017-12-19T11:32:05Z</time>
      </trkpt>
      <trkpt lat="45.35591" lon="5.91793">
        <ele>1072.4599609375</ele>
        <time>2017-12-19T11:32:08Z</time>
      </trkpt>
      <trkpt lat="45.3559" lon="5.91787">
        <ele>1074.4599609375</ele>
        <time>2017-12-19T11:32:12Z</time>
      </trkpt>
      <trkpt lat="45.35592" lon="5.9178">
        <ele>1077.4599609375</ele>
        <time>2017-12-19T11:32:19Z</time>
      </trkpt>
      <trkpt lat="45.35593" lon="5.91773">
        <ele>1077.4599609375</ele>
        <time>2017-12-19T11:32:24Z</time>
      </trkpt>
      <trkpt lat="45.35589" lon="5.91766">
        <ele>1082.4599609375</ele>
        <time>2017-12-19T11:32:29Z</time>
      </trkpt>
      <trkpt lat="45.35587" lon="5.91761">
        <ele>1082.4599609375</ele>
        <time>2017-12-19T11:32:33Z</time>
      </trkpt>
      <trkpt lat="45.35585" lon="5.91752">
        <ele>1081.4599609375</ele>
        <time>2017-12-19T11:32:36Z</time>
      </trkpt>
      <trkpt lat="45.35582" lon="5.91746">
        <ele>1081.4599609375</ele>
        <time>2017-12-19T11:32:38Z</time>
      </trkpt>
      <trkpt lat="45.3558" lon="5.91739">
        <ele>1083.4599609375</ele>
        <time>2017-12-19T11:32:41Z</time>
      </trkpt>
      <trkpt lat="45.35584" lon="5.91735">
        <ele>1087.4599609375</ele>
        <time>2017-12-19T11:32:47Z</time>
      </trkpt>
      <trkpt lat="45.35587" lon="5.91728">
        <ele>1087.4599609375</ele>
        <time>2017-12-19T11:32:52Z</time>
      </trkpt>
      <trkpt lat="45.35589" lon="5.91721">
        <ele>1087.4599609375</ele>
        <time>2017-12-19T11:32:58Z</time>
      </trkpt>
      <trkpt lat="45.35591" lon="5.91714">
        <ele>1088.4599609375</ele>
        <time>2017-12-19T11:33:03Z</time>
      </trkpt>
      <trkpt lat="45.35596" lon="5.91711">
        <ele>1087.4599609375</ele>
        <time>2017-12-19T11:33:07Z</time>
      </trkpt>
      <trkpt lat="45.356" lon="5.91707">
        <ele>1088.4599609375</ele>
        <time>2017-12-19T11:33:12Z</time>
      </trkpt>
      <trkpt lat="45.35603" lon="5.91702">
        <ele>1089.4599609375</ele>
        <time>2017-12-19T11:33:16Z</time>
      </trkpt>
      <trkpt lat="45.35607" lon="5.91696">
        <ele>1089.4599609375</ele>
        <time>2017-12-19T11:33:21Z</time>
      </trkpt>
      <trkpt lat="45.3561" lon="5.91691">
        <ele>1090.4599609375</ele>
        <time>2017-12-19T11:33:26Z</time>
      </trkpt>
      <trkpt lat="45.35615" lon="5.91686">
        <ele>1091.4599609375</ele>
        <time>2017-12-19T11:33:31Z</time>
      </trkpt>
      <trkpt lat="45.35616" lon="5.9168">
        <ele>1092.4599609375</ele>
        <time>2017-12-19T11:33:35Z</time>
      </trkpt>
      <trkpt lat="45.35619" lon="5.91674">
        <ele>1093.4599609375</ele>
        <time>2017-12-19T11:33:39Z</time>
      </trkpt>
      <trkpt lat="45.35622" lon="5.91666">
        <ele>1096.4599609375</ele>
        <time>2017-12-19T11:33:45Z</time>
      </trkpt>
      <trkpt lat="45.35624" lon="5.91659">
        <ele>1098.4599609375</ele>
        <time>2017-12-19T11:33:50Z</time>
      </trkpt>
      <trkpt lat="45.35624" lon="5.9165">
        <ele>1097.4599609375</ele>
        <time>2017-12-19T11:33:55Z</time>
      </trkpt>
      <trkpt lat="45.35623" lon="5.91644">
        <ele>1097.4599609375</ele>
        <time>2017-12-19T11:33:58Z</time>
      </trkpt>
      <trkpt lat="45.35627" lon="5.91639">
        <ele>1099.4599609375</ele>
        <time>2017-12-19T11:34:03Z</time>
      </trkpt>
      <trkpt lat="45.35631" lon="5.91636">
        <ele>1100.4599609375</ele>
        <time>2017-12-19T11:34:08Z</time>
      </trkpt>
      <trkpt lat="45.35635" lon="5.91631">
        <ele>1102.4599609375</ele>
        <time>2017-12-19T11:34:13Z</time>
      </trkpt>
      <trkpt lat="45.35639" lon="5.91625">
        <ele>1102.4599609375</ele>
        <time>2017-12-19T11:34:19Z</time>
      </trkpt>
      <trkpt lat="45.35642" lon="5.91618">
        <ele>1103.4599609375</ele>
        <time>2017-12-19T11:34:24Z</time>
      </trkpt>
      <trkpt lat="45.35643" lon="5.91611">
        <ele>1104.4599609375</ele>
        <time>2017-12-19T11:34:29Z</time>
      </trkpt>
      <trkpt lat="45.35644" lon="5.91604">
        <ele>1105.4599609375</ele>
        <time>2017-12-19T11:34:36Z</time>
      </trkpt>
      <trkpt lat="45.35644" lon="5.91597">
        <ele>1106.4599609375</ele>
        <time>2017-12-19T11:34:40Z</time>
      </trkpt>
      <trkpt lat="45.35642" lon="5.9159">
        <ele>1109.4599609375</ele>
        <time>2017-12-19T11:34:46Z</time>
      </trkpt>
      <trkpt lat="45.35643" lon="5.91584">
        <ele>1110.4599609375</ele>
        <time>2017-12-19T11:34:53Z</time>
      </trkpt>
      <trkpt lat="45.35648" lon="5.9158">
        <ele>1110.4599609375</ele>
        <time>2017-12-19T11:34:58Z</time>
      </trkpt>
      <trkpt lat="45.35651" lon="5.91574">
        <ele>1112.4599609375</ele>
        <time>2017-12-19T11:35:02Z</time>
      </trkpt>
      <trkpt lat="45.35652" lon="5.91567">
        <ele>1117.4599609375</ele>
        <time>2017-12-19T11:35:09Z</time>
      </trkpt>
      <trkpt lat="45.35655" lon="5.91561">
        <ele>1117.4599609375</ele>
        <time>2017-12-19T11:35:14Z</time>
      </trkpt>
      <trkpt lat="45.35658" lon="5.91556">
        <ele>1117.4599609375</ele>
        <time>2017-12-19T11:35:19Z</time>
      </trkpt>
      <trkpt lat="45.35659" lon="5.91549">
        <ele>1119.4599609375</ele>
        <time>2017-12-19T11:35:26Z</time>
      </trkpt>
      <trkpt lat="45.35662" lon="5.91544">
        <ele>1119.4599609375</ele>
        <time>2017-12-19T11:35:31Z</time>
      </trkpt>
      <trkpt lat="45.35667" lon="5.9154">
        <ele>1121.4599609375</ele>
        <time>2017-12-19T11:35:36Z</time>
      </trkpt>
      <trkpt lat="45.35672" lon="5.91536">
        <ele>1123.4599609375</ele>
        <time>2017-12-19T11:35:41Z</time>
      </trkpt>
      <trkpt lat="45.35675" lon="5.91529">
        <ele>1123.4599609375</ele>
        <time>2017-12-19T11:35:47Z</time>
      </trkpt>
      <trkpt lat="45.35676" lon="5.91522">
        <ele>1124.4599609375</ele>
        <time>2017-12-19T11:35:52Z</time>
      </trkpt>
      <trkpt lat="45.35677" lon="5.91515">
        <ele>1126.4599609375</ele>
        <time>2017-12-19T11:35:57Z</time>
      </trkpt>
      <trkpt lat="45.35682" lon="5.91511">
        <ele>1128.4599609375</ele>
        <time>2017-12-19T11:36:04Z</time>
      </trkpt>
      <trkpt lat="45.35685" lon="5.91506">
        <ele>1129.4599609375</ele>
        <time>2017-12-19T11:36:10Z</time>
      </trkpt>
      <trkpt lat="45.35689" lon="5.91501">
        <ele>1132.4599609375</ele>
        <time>2017-12-19T11:36:16Z</time>
      </trkpt>
      <trkpt lat="45.35692" lon="5.91495">
        <ele>1132.4599609375</ele>
        <time>2017-12-19T11:36:21Z</time>
      </trkpt>
      <trkpt lat="45.35696" lon="5.91484">
        <ele>1131.4599609375</ele>
        <time>2017-12-19T11:36:32Z</time>
      </trkpt>
      <trkpt lat="45.35698" lon="5.91477">
        <ele>1134.4599609375</ele>
        <time>2017-12-19T11:36:39Z</time>
      </trkpt>
      <trkpt lat="45.35697" lon="5.91471">
        <ele>1135.4599609375</ele>
        <time>2017-12-19T11:36:44Z</time>
      </trkpt>
      <trkpt lat="45.35699" lon="5.91465">
        <ele>1135.4599609375</ele>
        <time>2017-12-19T11:36:48Z</time>
      </trkpt>
      <trkpt lat="45.35698" lon="5.91458">
        <ele>1136.4599609375</ele>
        <time>2017-12-19T11:36:52Z</time>
      </trkpt>
      <trkpt lat="45.35699" lon="5.91451">
        <ele>1138.4599609375</ele>
        <time>2017-12-19T11:36:58Z</time>
      </trkpt>
      <trkpt lat="45.357" lon="5.91445">
        <ele>1140.4599609375</ele>
        <time>2017-12-19T11:37:03Z</time>
      </trkpt>
      <trkpt lat="45.35699" lon="5.91438">
        <ele>1141.4599609375</ele>
        <time>2017-12-19T11:37:10Z</time>
      </trkpt>
      <trkpt lat="45.35699" lon="5.91431">
        <ele>1143.4599609375</ele>
        <time>2017-12-19T11:37:16Z</time>
      </trkpt>
      <trkpt lat="45.35701" lon="5.91424">
        <ele>1146.4599609375</ele>
        <time>2017-12-19T11:37:21Z</time>
      </trkpt>
      <trkpt lat="45.35702" lon="5.91417">
        <ele>1146.4599609375</ele>
        <time>2017-12-19T11:37:26Z</time>
      </trkpt>
      <trkpt lat="45.35705" lon="5.91411">
        <ele>1147.4599609375</ele>
        <time>2017-12-19T11:37:32Z</time>
      </trkpt>
      <trkpt lat="45.35704" lon="5.91405">
        <ele>1146.4599609375</ele>
        <time>2017-12-19T11:37:39Z</time>
      </trkpt>
      <trkpt lat="45.35706" lon="5.91398">
        <ele>1149.4599609375</ele>
        <time>2017-12-19T11:37:46Z</time>
      </trkpt>
      <trkpt lat="45.35705" lon="5.91391">
        <ele>1149.4599609375</ele>
        <time>2017-12-19T11:37:51Z</time>
      </trkpt>
      <trkpt lat="45.35706" lon="5.91384">
        <ele>1151.4599609375</ele>
        <time>2017-12-19T11:37:55Z</time>
      </trkpt>
      <trkpt lat="45.35707" lon="5.91376">
        <ele>1152.4599609375</ele>
        <time>2017-12-19T11:38:01Z</time>
      </trkpt>
      <trkpt lat="45.35709" lon="5.9137">
        <ele>1153.4599609375</ele>
        <time>2017-12-19T11:38:08Z</time>
      </trkpt>
      <trkpt lat="45.35709" lon="5.91362">
        <ele>1155.4599609375</ele>
        <time>2017-12-19T11:38:13Z</time>
      </trkpt>
      <trkpt lat="45.3571" lon="5.91354">
        <ele>1155.4599609375</ele>
        <time>2017-12-19T11:38:18Z</time>
      </trkpt>
      <trkpt lat="45.35711" lon="5.91347">
        <ele>1157.4599609375</ele>
        <time>2017-12-19T11:38:23Z</time>
      </trkpt>
      <trkpt lat="45.3571" lon="5.9134">
        <ele>1160.4599609375</ele>
        <time>2017-12-19T11:38:29Z</time>
      </trkpt>
      <trkpt lat="45.35709" lon="5.91334">
        <ele>1163.4599609375</ele>
        <time>2017-12-19T11:38:34Z</time>
      </trkpt>
      <trkpt lat="45.35708" lon="5.91326">
        <ele>1170.4599609375</ele>
        <time>2017-12-19T11:38:41Z</time>
      </trkpt>
      <trkpt lat="45.35709" lon="5.9132">
        <ele>1169.4599609375</ele>
        <time>2017-12-19T11:38:49Z</time>
      </trkpt>
      <trkpt lat="45.35711" lon="5.91313">
        <ele>1167.4599609375</ele>
        <time>2017-12-19T11:38:53Z</time>
      </trkpt>
      <trkpt lat="45.35712" lon="5.91306">
        <ele>1171.4599609375</ele>
        <time>2017-12-19T11:39:00Z</time>
      </trkpt>
      <trkpt lat="45.35712" lon="5.913">
        <ele>1174.4599609375</ele>
        <time>2017-12-19T11:39:06Z</time>
      </trkpt>
      <trkpt lat="45.35711" lon="5.91293">
        <ele>1176.4599609375</ele>
        <time>2017-12-19T11:39:13Z</time>
      </trkpt>
      <trkpt lat="45.35712" lon="5.91286">
        <ele>1177.4599609375</ele>
        <time>2017-12-19T11:39:19Z</time>
      </trkpt>
      <trkpt lat="45.35711" lon="5.91279">
        <ele>1179.4599609375</ele>
        <time>2017-12-19T11:39:25Z</time>
      </trkpt>
      <trkpt lat="45.35712" lon="5.91273">
        <ele>1182.4599609375</ele>
        <time>2017-12-19T11:39:35Z</time>
      </trkpt>
      <trkpt lat="45.35714" lon="5.91266">
        <ele>1182.4599609375</ele>
        <time>2017-12-19T11:39:39Z</time>
      </trkpt>
      <trkpt lat="45.35715" lon="5.91259">
        <ele>1182.4599609375</ele>
        <time>2017-12-19T11:39:43Z</time>
      </trkpt>
      <trkpt lat="45.35715" lon="5.91253">
        <ele>1182.4599609375</ele>
        <time>2017-12-19T11:39:50Z</time>
      </trkpt>
      <trkpt lat="45.35716" lon="5.91246">
        <ele>1185.4599609375</ele>
        <time>2017-12-19T11:39:59Z</time>
      </trkpt>
      <trkpt lat="45.35715" lon="5.91239">
        <ele>1188.4599609375</ele>
        <time>2017-12-19T11:40:06Z</time>
      </trkpt>
      <trkpt lat="45.35715" lon="5.91232">
        <ele>1188.4599609375</ele>
        <time>2017-12-19T11:40:13Z</time>
      </trkpt>
      <trkpt lat="45.35716" lon="5.91225">
        <ele>1189.4599609375</ele>
        <time>2017-12-19T11:40:22Z</time>
      </trkpt>
      <trkpt lat="45.35715" lon="5.91218">
        <ele>1190.4599609375</ele>
        <time>2017-12-19T11:40:29Z</time>
      </trkpt>
      <trkpt lat="45.35716" lon="5.91211">
        <ele>1191.4599609375</ele>
        <time>2017-12-19T11:40:35Z</time>
      </trkpt>
      <trkpt lat="45.35716" lon="5.91205">
        <ele>1194.4599609375</ele>
        <time>2017-12-19T11:40:42Z</time>
      </trkpt>
      <trkpt lat="45.35716" lon="5.91197">
        <ele>1198.4599609375</ele>
        <time>2017-12-19T11:40:52Z</time>
      </trkpt>
      <trkpt lat="45.35716" lon="5.91191">
        <ele>1198.4599609375</ele>
        <time>2017-12-19T11:42:08Z</time>
      </trkpt>
      <trkpt lat="45.35715" lon="5.91184">
        <ele>1200.4599609375</ele>
        <time>2017-12-19T11:42:15Z</time>
      </trkpt>
      <trkpt lat="45.35715" lon="5.91176">
        <ele>1199.4599609375</ele>
        <time>2017-12-19T11:42:35Z</time>
      </trkpt>
      <trkpt lat="45.35714" lon="5.91169">
        <ele>1202.4599609375</ele>
        <time>2017-12-19T11:42:42Z</time>
      </trkpt>
      <trkpt lat="45.35715" lon="5.91161">
        <ele>1206.4599609375</ele>
        <time>2017-12-19T11:42:47Z</time>
      </trkpt>
      <trkpt lat="45.35714" lon="5.91154">
        <ele>1205.4599609375</ele>
        <time>2017-12-19T11:42:51Z</time>
      </trkpt>
      <trkpt lat="45.35712" lon="5.91149">
        <ele>1206.4599609375</ele>
        <time>2017-12-19T11:42:58Z</time>
      </trkpt>
      <trkpt lat="45.35712" lon="5.9114">
        <ele>1207.4599609375</ele>
        <time>2017-12-19T11:43:03Z</time>
      </trkpt>
      <trkpt lat="45.35707" lon="5.91139">
        <ele>1216.4599609375</ele>
        <time>2017-12-19T11:43:12Z</time>
      </trkpt>
      <trkpt lat="45.35705" lon="5.91133">
        <ele>1214.4599609375</ele>
        <time>2017-12-19T11:43:17Z</time>
      </trkpt>
      <trkpt lat="45.35703" lon="5.91125">
        <ele>1215.4599609375</ele>
        <time>2017-12-19T11:43:21Z</time>
      </trkpt>
      <trkpt lat="45.35702" lon="5.91117">
        <ele>1216.4599609375</ele>
        <time>2017-12-19T11:43:27Z</time>
      </trkpt>
      <trkpt lat="45.357" lon="5.9111">
        <ele>1218.4599609375</ele>
        <time>2017-12-19T11:43:34Z</time>
      </trkpt>
      <trkpt lat="45.357" lon="5.91101">
        <ele>1219.4599609375</ele>
        <time>2017-12-19T11:43:38Z</time>
      </trkpt>
      <trkpt lat="45.357" lon="5.91095">
        <ele>1219.4599609375</ele>
        <time>2017-12-19T11:43:41Z</time>
      </trkpt>
      <trkpt lat="45.35699" lon="5.91087">
        <ele>1219.4599609375</ele>
        <time>2017-12-19T11:43:45Z</time>
      </trkpt>
      <trkpt lat="45.35698" lon="5.9108">
        <ele>1221.4599609375</ele>
        <time>2017-12-19T11:43:50Z</time>
      </trkpt>
      <trkpt lat="45.35697" lon="5.91073">
        <ele>1223.4599609375</ele>
        <time>2017-12-19T11:43:55Z</time>
      </trkpt>
      <trkpt lat="45.35695" lon="5.91065">
        <ele>1225.4599609375</ele>
        <time>2017-12-19T11:44:00Z</time>
      </trkpt>
      <trkpt lat="45.35695" lon="5.91058">
        <ele>1224.4599609375</ele>
        <time>2017-12-19T11:44:05Z</time>
      </trkpt>
      <trkpt lat="45.35692" lon="5.91053">
        <ele>1225.4599609375</ele>
        <time>2017-12-19T11:44:10Z</time>
      </trkpt>
      <trkpt lat="45.35689" lon="5.91047">
        <ele>1227.4599609375</ele>
        <time>2017-12-19T11:44:16Z</time>
      </trkpt>
      <trkpt lat="45.35688" lon="5.9104">
        <ele>1227.4599609375</ele>
        <time>2017-12-19T11:44:22Z</time>
      </trkpt>
      <trkpt lat="45.35686" lon="5.91033">
        <ele>1227.4599609375</ele>
        <time>2017-12-19T11:44:28Z</time>
      </trkpt>
      <trkpt lat="45.35686" lon="5.91026">
        <ele>1230.4599609375</ele>
        <time>2017-12-19T11:44:35Z</time>
      </trkpt>
      <trkpt lat="45.35684" lon="5.91018">
        <ele>1228.458984375</ele>
        <time>2017-12-19T11:44:39Z</time>
      </trkpt>
      <trkpt lat="45.35681" lon="5.91011">
        <ele>1233.458984375</ele>
        <time>2017-12-19T11:44:51Z</time>
      </trkpt>
      <trkpt lat="45.35681" lon="5.91004">
        <ele>1237.458984375</ele>
        <time>2017-12-19T11:44:58Z</time>
      </trkpt>
      <trkpt lat="45.35679" lon="5.90997">
        <ele>1236.458984375</ele>
        <time>2017-12-19T11:45:03Z</time>
      </trkpt>
      <trkpt lat="45.35677" lon="5.90991">
        <ele>1239.458984375</ele>
        <time>2017-12-19T11:45:09Z</time>
      </trkpt>
      <trkpt lat="45.35676" lon="5.90982">
        <ele>1240.458984375</ele>
        <time>2017-12-19T11:45:15Z</time>
      </trkpt>
      <trkpt lat="45.35674" lon="5.90975">
        <ele>1242.458984375</ele>
        <time>2017-12-19T11:45:20Z</time>
      </trkpt>
      <trkpt lat="45.35675" lon="5.90968">
        <ele>1241.458984375</ele>
        <time>2017-12-19T11:45:30Z</time>
      </trkpt>
      <trkpt lat="45.35676" lon="5.90961">
        <ele>1242.458984375</ele>
        <time>2017-12-19T11:45:35Z</time>
      </trkpt>
      <trkpt lat="45.35678" lon="5.90955">
        <ele>1243.458984375</ele>
        <time>2017-12-19T11:45:41Z</time>
      </trkpt>
      <trkpt lat="45.35677" lon="5.90947">
        <ele>1245.458984375</ele>
        <time>2017-12-19T11:45:46Z</time>
      </trkpt>
      <trkpt lat="45.35678" lon="5.9094">
        <ele>1254.458984375</ele>
        <time>2017-12-19T11:46:01Z</time>
      </trkpt>
      <trkpt lat="45.3568" lon="5.90932">
        <ele>1254.458984375</ele>
        <time>2017-12-19T11:46:06Z</time>
      </trkpt>
      <trkpt lat="45.3568" lon="5.90924">
        <ele>1255.458984375</ele>
        <time>2017-12-19T11:46:13Z</time>
      </trkpt>
      <trkpt lat="45.35681" lon="5.90917">
        <ele>1258.458984375</ele>
        <time>2017-12-19T11:46:30Z</time>
      </trkpt>
      <trkpt lat="45.35684" lon="5.90912">
        <ele>1258.458984375</ele>
        <time>2017-12-19T11:46:35Z</time>
      </trkpt>
      <trkpt lat="45.35687" lon="5.90905">
        <ele>1258.458984375</ele>
        <time>2017-12-19T11:46:39Z</time>
      </trkpt>
      <trkpt lat="45.35689" lon="5.90896">
        <ele>1258.458984375</ele>
        <time>2017-12-19T11:46:43Z</time>
      </trkpt>
      <trkpt lat="45.3569" lon="5.90889">
        <ele>1260.458984375</ele>
        <time>2017-12-19T11:46:46Z</time>
      </trkpt>
      <trkpt lat="45.35693" lon="5.90882">
        <ele>1265.458984375</ele>
        <time>2017-12-19T11:46:53Z</time>
      </trkpt>
      <trkpt lat="45.35696" lon="5.90879">
        <ele>1266.458984375</ele>
        <time>2017-12-19T11:46:58Z</time>
      </trkpt>
      <trkpt lat="45.357" lon="5.90873">
        <ele>1266.458984375</ele>
        <time>2017-12-19T11:47:06Z</time>
      </trkpt>
      <trkpt lat="45.35706" lon="5.90872">
        <ele>1266.458984375</ele>
        <time>2017-12-19T11:47:11Z</time>
      </trkpt>
      <trkpt lat="45.35711" lon="5.90872">
        <ele>1268.458984375</ele>
        <time>2017-12-19T11:47:18Z</time>
      </trkpt>
      <trkpt lat="45.35716" lon="5.90871">
        <ele>1268.458984375</ele>
        <time>2017-12-19T11:47:24Z</time>
      </trkpt>
      <trkpt lat="45.35721" lon="5.90871">
        <ele>1270.458984375</ele>
        <time>2017-12-19T11:47:32Z</time>
      </trkpt>
      <trkpt lat="45.35725" lon="5.90869">
        <ele>1269.458984375</ele>
        <time>2017-12-19T11:47:39Z</time>
      </trkpt>
      <trkpt lat="45.3573" lon="5.9087">
        <ele>1273.458984375</ele>
        <time>2017-12-19T11:47:48Z</time>
      </trkpt>
      <trkpt lat="45.35735" lon="5.9087">
        <ele>1274.458984375</ele>
        <time>2017-12-19T11:47:58Z</time>
      </trkpt>
      <trkpt lat="45.35739" lon="5.90871">
        <ele>1277.458984375</ele>
        <time>2017-12-19T11:48:04Z</time>
      </trkpt>
      <trkpt lat="45.35745" lon="5.90869">
        <ele>1277.458984375</ele>
        <time>2017-12-19T11:48:10Z</time>
      </trkpt>
      <trkpt lat="45.35749" lon="5.90871">
        <ele>1277.458984375</ele>
        <time>2017-12-19T11:48:15Z</time>
      </trkpt>
      <trkpt lat="45.35754" lon="5.90873">
        <ele>1279.458984375</ele>
        <time>2017-12-19T11:48:20Z</time>
      </trkpt>
      <trkpt lat="45.3576" lon="5.90874">
        <ele>1279.458984375</ele>
        <time>2017-12-19T11:48:25Z</time>
      </trkpt>
      <trkpt lat="45.35762" lon="5.90881">
        <ele>1281.458984375</ele>
        <time>2017-12-19T11:48:30Z</time>
      </trkpt>
      <trkpt lat="45.35766" lon="5.90885">
        <ele>1284.458984375</ele>
        <time>2017-12-19T11:48:37Z</time>
      </trkpt>
      <trkpt lat="45.35772" lon="5.90885">
        <ele>1286.4599609375</ele>
        <time>2017-12-19T11:48:46Z</time>
      </trkpt>
      <trkpt lat="45.35777" lon="5.90885">
        <ele>1286.4599609375</ele>
        <time>2017-12-19T11:48:51Z</time>
      </trkpt>
      <trkpt lat="45.35783" lon="5.90883">
        <ele>1285.4599609375</ele>
        <time>2017-12-19T11:48:56Z</time>
      </trkpt>
      <trkpt lat="45.35787" lon="5.90884">
        <ele>1285.4599609375</ele>
        <time>2017-12-19T11:49:00Z</time>
      </trkpt>
      <trkpt lat="45.35792" lon="5.90888">
        <ele>1285.4599609375</ele>
        <time>2017-12-19T11:49:04Z</time>
      </trkpt>
      <trkpt lat="45.35796" lon="5.90891">
        <ele>1285.4599609375</ele>
        <time>2017-12-19T11:49:09Z</time>
      </trkpt>
      <trkpt lat="45.35802" lon="5.90893">
        <ele>1286.4599609375</ele>
        <time>2017-12-19T11:49:15Z</time>
      </trkpt>
      <trkpt lat="45.35806" lon="5.90897">
        <ele>1288.4599609375</ele>
        <time>2017-12-19T11:49:20Z</time>
      </trkpt>
      <trkpt lat="45.35808" lon="5.90891">
        <ele>1291.4599609375</ele>
        <time>2017-12-19T11:49:32Z</time>
      </trkpt>
      <trkpt lat="45.35806" lon="5.90884">
        <ele>1295.4599609375</ele>
        <time>2017-12-19T11:49:41Z</time>
      </trkpt>
      <trkpt lat="45.35805" lon="5.90877">
        <ele>1296.4599609375</ele>
        <time>2017-12-19T11:49:47Z</time>
      </trkpt>
      <trkpt lat="45.35803" lon="5.9087">
        <ele>1301.4599609375</ele>
        <time>2017-12-19T11:50:00Z</time>
      </trkpt>
      <trkpt lat="45.35803" lon="5.90863">
        <ele>1301.4599609375</ele>
        <time>2017-12-19T11:50:10Z</time>
      </trkpt>
      <trkpt lat="45.35804" lon="5.90856">
        <ele>1306.4599609375</ele>
        <time>2017-12-19T11:50:17Z</time>
      </trkpt>
      <trkpt lat="45.35803" lon="5.9085">
        <ele>1306.4599609375</ele>
        <time>2017-12-19T11:50:22Z</time>
      </trkpt>
      <trkpt lat="45.35803" lon="5.90844">
        <ele>1306.4599609375</ele>
        <time>2017-12-19T11:50:26Z</time>
      </trkpt>
      <trkpt lat="45.35803" lon="5.90836">
        <ele>1308.4599609375</ele>
        <time>2017-12-19T11:50:34Z</time>
      </trkpt>
      <trkpt lat="45.35805" lon="5.90828">
        <ele>1310.458984375</ele>
        <time>2017-12-19T11:50:41Z</time>
      </trkpt>
      <trkpt lat="45.35804" lon="5.9082">
        <ele>1311.458984375</ele>
        <time>2017-12-19T11:50:48Z</time>
      </trkpt>
      <trkpt lat="45.35806" lon="5.90814">
        <ele>1313.458984375</ele>
        <time>2017-12-19T11:50:55Z</time>
      </trkpt>
      <trkpt lat="45.35806" lon="5.90808">
        <ele>1315.458984375</ele>
        <time>2017-12-19T11:51:01Z</time>
      </trkpt>
      <trkpt lat="45.35806" lon="5.90801">
        <ele>1317.458984375</ele>
        <time>2017-12-19T11:51:10Z</time>
      </trkpt>
      <trkpt lat="45.35808" lon="5.90794">
        <ele>1320.458984375</ele>
        <time>2017-12-19T11:51:22Z</time>
      </trkpt>
      <trkpt lat="45.35808" lon="5.90786">
        <ele>1320.458984375</ele>
        <time>2017-12-19T11:51:36Z</time>
      </trkpt>
      <trkpt lat="45.35805" lon="5.9078">
        <ele>1322.458984375</ele>
        <time>2017-12-19T11:51:44Z</time>
      </trkpt>
      <trkpt lat="45.358" lon="5.90776">
        <ele>1326.458984375</ele>
        <time>2017-12-19T11:51:55Z</time>
      </trkpt>
      <trkpt lat="45.35796" lon="5.90773">
        <ele>1327.458984375</ele>
        <time>2017-12-19T11:52:02Z</time>
      </trkpt>
      <trkpt lat="45.35791" lon="5.90769">
        <ele>1329.458984375</ele>
        <time>2017-12-19T11:52:43Z</time>
      </trkpt>
      <trkpt lat="45.35787" lon="5.90764">
        <ele>1329.458984375</ele>
        <time>2017-12-19T11:52:49Z</time>
      </trkpt>
      <trkpt lat="45.35781" lon="5.90761">
        <ele>1331.458984375</ele>
        <time>2017-12-19T11:52:52Z</time>
      </trkpt>
      <trkpt lat="45.35776" lon="5.90757">
        <ele>1333.458984375</ele>
        <time>2017-12-19T11:52:57Z</time>
      </trkpt>
      <trkpt lat="45.3577" lon="5.90755">
        <ele>1337.458984375</ele>
        <time>2017-12-19T11:53:02Z</time>
      </trkpt>
      <trkpt lat="45.35768" lon="5.90749">
        <ele>1337.458984375</ele>
        <time>2017-12-19T11:53:05Z</time>
      </trkpt>
      <trkpt lat="45.35764" lon="5.90745">
        <ele>1339.458984375</ele>
        <time>2017-12-19T11:53:09Z</time>
      </trkpt>
      <trkpt lat="45.35762" lon="5.90738">
        <ele>1340.458984375</ele>
        <time>2017-12-19T11:53:13Z</time>
      </trkpt>
      <trkpt lat="45.3576" lon="5.90732">
        <ele>1339.458984375</ele>
        <time>2017-12-19T11:53:16Z</time>
      </trkpt>
      <trkpt lat="45.35756" lon="5.90728">
        <ele>1343.458984375</ele>
        <time>2017-12-19T11:53:23Z</time>
      </trkpt>
      <trkpt lat="45.35755" lon="5.9072">
        <ele>1343.458984375</ele>
        <time>2017-12-19T11:53:30Z</time>
      </trkpt>
      <trkpt lat="45.35752" lon="5.90714">
        <ele>1342.458984375</ele>
        <time>2017-12-19T11:53:35Z</time>
      </trkpt>
      <trkpt lat="45.35748" lon="5.90709">
        <ele>1343.458984375</ele>
        <time>2017-12-19T11:53:39Z</time>
      </trkpt>
      <trkpt lat="45.35745" lon="5.90704">
        <ele>1345.458984375</ele>
        <time>2017-12-19T11:53:43Z</time>
      </trkpt>
      <trkpt lat="45.35743" lon="5.90697">
        <ele>1346.458984375</ele>
        <time>2017-12-19T11:53:48Z</time>
      </trkpt>
      <trkpt lat="45.35739" lon="5.90693">
        <ele>1350.458984375</ele>
        <time>2017-12-19T11:53:53Z</time>
      </trkpt>
      <trkpt lat="45.35736" lon="5.90686">
        <ele>1349.458984375</ele>
        <time>2017-12-19T11:53:57Z</time>
      </trkpt>
      <trkpt lat="45.35734" lon="5.90679">
        <ele>1349.458984375</ele>
        <time>2017-12-19T11:54:02Z</time>
      </trkpt>
      <trkpt lat="45.3573" lon="5.90674">
        <ele>1352.458984375</ele>
        <time>2017-12-19T11:54:06Z</time>
      </trkpt>
      <trkpt lat="45.3573" lon="5.90665">
        <ele>1351.458984375</ele>
        <time>2017-12-19T11:54:10Z</time>
      </trkpt>
      <trkpt lat="45.35726" lon="5.90661">
        <ele>1356.458984375</ele>
        <time>2017-12-19T11:54:15Z</time>
      </trkpt>
      <trkpt lat="45.35725" lon="5.90654">
        <ele>1354.458984375</ele>
        <time>2017-12-19T11:54:19Z</time>
      </trkpt>
      <trkpt lat="45.35725" lon="5.90647">
        <ele>1353.458984375</ele>
        <time>2017-12-19T11:54:23Z</time>
      </trkpt>
      <trkpt lat="45.35721" lon="5.9064">
        <ele>1357.458984375</ele>
        <time>2017-12-19T11:54:28Z</time>
      </trkpt>
      <trkpt lat="45.35718" lon="5.90635">
        <ele>1358.458984375</ele>
        <time>2017-12-19T11:54:35Z</time>
      </trkpt>
      <trkpt lat="45.35716" lon="5.90628">
        <ele>1362.458984375</ele>
        <time>2017-12-19T11:54:41Z</time>
      </trkpt>
      <trkpt lat="45.35716" lon="5.90621">
        <ele>1359.458984375</ele>
        <time>2017-12-19T11:54:44Z</time>
      </trkpt>
      <trkpt lat="45.35713" lon="5.90615">
        <ele>1360.458984375</ele>
        <time>2017-12-19T11:54:49Z</time>
      </trkpt>
      <trkpt lat="45.35709" lon="5.9061">
        <ele>1364.458984375</ele>
        <time>2017-12-19T11:54:56Z</time>
      </trkpt>
      <trkpt lat="45.35703" lon="5.90609">
        <ele>1368.458984375</ele>
        <time>2017-12-19T11:55:00Z</time>
      </trkpt>
      <trkpt lat="45.35699" lon="5.90603">
        <ele>1369.458984375</ele>
        <time>2017-12-19T11:55:06Z</time>
      </trkpt>
      <trkpt lat="45.35696" lon="5.90599">
        <ele>1370.458984375</ele>
        <time>2017-12-19T11:55:09Z</time>
      </trkpt>
      <trkpt lat="45.35693" lon="5.90592">
        <ele>1368.458984375</ele>
        <time>2017-12-19T11:55:11Z</time>
      </trkpt>
      <trkpt lat="45.35692" lon="5.90586">
        <ele>1369.458984375</ele>
        <time>2017-12-19T11:55:14Z</time>
      </trkpt>
      <trkpt lat="45.35687" lon="5.90581">
        <ele>1369.458984375</ele>
        <time>2017-12-19T11:55:21Z</time>
      </trkpt>
      <trkpt lat="45.35682" lon="5.9058">
        <ele>1373.458984375</ele>
        <time>2017-12-19T11:55:27Z</time>
      </trkpt>
      <trkpt lat="45.35679" lon="5.90573">
        <ele>1374.458984375</ele>
        <time>2017-12-19T11:55:33Z</time>
      </trkpt>
      <trkpt lat="45.35673" lon="5.90567">
        <ele>1377.458984375</ele>
        <time>2017-12-19T11:55:40Z</time>
      </trkpt>
      <trkpt lat="45.3567" lon="5.90563">
        <ele>1377.458984375</ele>
        <time>2017-12-19T11:55:44Z</time>
      </trkpt>
      <trkpt lat="45.35668" lon="5.90557">
        <ele>1378.458984375</ele>
        <time>2017-12-19T11:55:49Z</time>
      </trkpt>
      <trkpt lat="45.35668" lon="5.90549">
        <ele>1378.458984375</ele>
        <time>2017-12-19T11:55:53Z</time>
      </trkpt>
      <trkpt lat="45.35665" lon="5.90545">
        <ele>1380.458984375</ele>
        <time>2017-12-19T11:55:58Z</time>
      </trkpt>
      <trkpt lat="45.35664" lon="5.90538">
        <ele>1380.458984375</ele>
        <time>2017-12-19T11:56:05Z</time>
      </trkpt>
      <trkpt lat="45.35662" lon="5.90532">
        <ele>1379.458984375</ele>
        <time>2017-12-19T11:56:08Z</time>
      </trkpt>
      <trkpt lat="45.3566" lon="5.90526">
        <ele>1381.458984375</ele>
        <time>2017-12-19T11:56:11Z</time>
      </trkpt>
      <trkpt lat="45.35657" lon="5.90518">
        <ele>1385.458984375</ele>
        <time>2017-12-19T11:56:16Z</time>
      </trkpt>
      <trkpt lat="45.35654" lon="5.90513">
        <ele>1386.458984375</ele>
        <time>2017-12-19T11:56:19Z</time>
      </trkpt>
      <trkpt lat="45.35653" lon="5.90506">
        <ele>1386.458984375</ele>
        <time>2017-12-19T11:56:21Z</time>
      </trkpt>
      <trkpt lat="45.3565" lon="5.90502">
        <ele>1390.458984375</ele>
        <time>2017-12-19T11:56:25Z</time>
      </trkpt>
      <trkpt lat="45.35649" lon="5.90495">
        <ele>1390.458984375</ele>
        <time>2017-12-19T11:56:29Z</time>
      </trkpt>
      <trkpt lat="45.35647" lon="5.90489">
        <ele>1390.458984375</ele>
        <time>2017-12-19T11:56:33Z</time>
      </trkpt>
      <trkpt lat="45.35647" lon="5.90482">
        <ele>1391.458984375</ele>
        <time>2017-12-19T11:56:38Z</time>
      </trkpt>
      <trkpt lat="45.35644" lon="5.90475">
        <ele>1393.458984375</ele>
        <time>2017-12-19T11:56:43Z</time>
      </trkpt>
      <trkpt lat="45.35642" lon="5.90469">
        <ele>1395.458984375</ele>
        <time>2017-12-19T11:56:47Z</time>
      </trkpt>
      <trkpt lat="45.3564" lon="5.90461">
        <ele>1398.458984375</ele>
        <time>2017-12-19T11:56:51Z</time>
      </trkpt>
      <trkpt lat="45.35639" lon="5.90454">
        <ele>1397.458984375</ele>
        <time>2017-12-19T11:56:56Z</time>
      </trkpt>
      <trkpt lat="45.35638" lon="5.90447">
        <ele>1397.458984375</ele>
        <time>2017-12-19T11:57:00Z</time>
      </trkpt>
      <trkpt lat="45.35636" lon="5.9044">
        <ele>1396.458984375</ele>
        <time>2017-12-19T11:57:02Z</time>
      </trkpt>
      <trkpt lat="45.35632" lon="5.90435">
        <ele>1399.458984375</ele>
        <time>2017-12-19T11:57:05Z</time>
      </trkpt>
      <trkpt lat="45.35628" lon="5.90429">
        <ele>1402.458984375</ele>
        <time>2017-12-19T11:57:10Z</time>
      </trkpt>
      <trkpt lat="45.35625" lon="5.90424">
        <ele>1402.458984375</ele>
        <time>2017-12-19T11:57:13Z</time>
      </trkpt>
      <trkpt lat="45.35621" lon="5.90418">
        <ele>1402.458984375</ele>
        <time>2017-12-19T11:57:17Z</time>
      </trkpt>
      <trkpt lat="45.35618" lon="5.90414">
        <ele>1403.458984375</ele>
        <time>2017-12-19T11:57:21Z</time>
      </trkpt>
      <trkpt lat="45.35615" lon="5.90408">
        <ele>1403.458984375</ele>
        <time>2017-12-19T11:57:24Z</time>
      </trkpt>
      <trkpt lat="45.3561" lon="5.90406">
        <ele>1402.458984375</ele>
        <time>2017-12-19T11:57:27Z</time>
      </trkpt>
      <trkpt lat="45.35607" lon="5.90401">
        <ele>1403.458984375</ele>
        <time>2017-12-19T11:57:30Z</time>
      </trkpt>
      <trkpt lat="45.35602" lon="5.90398">
        <ele>1406.458984375</ele>
        <time>2017-12-19T11:57:35Z</time>
      </trkpt>
      <trkpt lat="45.35597" lon="5.90395">
        <ele>1410.4580078125</ele>
        <time>2017-12-19T11:57:39Z</time>
      </trkpt>
      <trkpt lat="45.35592" lon="5.90392">
        <ele>1415.4580078125</ele>
        <time>2017-12-19T11:57:45Z</time>
      </trkpt>
      <trkpt lat="45.35588" lon="5.90388">
        <ele>1416.4580078125</ele>
        <time>2017-12-19T11:57:50Z</time>
      </trkpt>
      <trkpt lat="45.35583" lon="5.90382">
        <ele>1415.4580078125</ele>
        <time>2017-12-19T11:57:53Z</time>
      </trkpt>
      <trkpt lat="45.35579" lon="5.90378">
        <ele>1413.4580078125</ele>
        <time>2017-12-19T11:57:57Z</time>
      </trkpt>
      <trkpt lat="45.35574" lon="5.90374">
        <ele>1418.4580078125</ele>
        <time>2017-12-19T11:58:03Z</time>
      </trkpt>
      <trkpt lat="45.3557" lon="5.90371">
        <ele>1420.4580078125</ele>
        <time>2017-12-19T11:58:07Z</time>
      </trkpt>
      <trkpt lat="45.35567" lon="5.90365">
        <ele>1419.4580078125</ele>
        <time>2017-12-19T11:58:10Z</time>
      </trkpt>
      <trkpt lat="45.35562" lon="5.90362">
        <ele>1420.4580078125</ele>
        <time>2017-12-19T11:58:14Z</time>
      </trkpt>
      <trkpt lat="45.35557" lon="5.90361">
        <ele>1421.4580078125</ele>
        <time>2017-12-19T11:58:18Z</time>
      </trkpt>
      <trkpt lat="45.35553" lon="5.90358">
        <ele>1424.4580078125</ele>
        <time>2017-12-19T11:58:22Z</time>
      </trkpt>
      <trkpt lat="45.35549" lon="5.90355">
        <ele>1424.4580078125</ele>
        <time>2017-12-19T11:58:26Z</time>
      </trkpt>
      <trkpt lat="45.35546" lon="5.9035">
        <ele>1421.4580078125</ele>
        <time>2017-12-19T11:58:30Z</time>
      </trkpt>
      <trkpt lat="45.35542" lon="5.90345">
        <ele>1422.4580078125</ele>
        <time>2017-12-19T11:58:34Z</time>
      </trkpt>
      <trkpt lat="45.35537" lon="5.90345">
        <ele>1422.4580078125</ele>
        <time>2017-12-19T11:58:39Z</time>
      </trkpt>
      <trkpt lat="45.35531" lon="5.90344">
        <ele>1427.4580078125</ele>
        <time>2017-12-19T11:58:45Z</time>
      </trkpt>
      <trkpt lat="45.35527" lon="5.90346">
        <ele>1431.4580078125</ele>
        <time>2017-12-19T11:58:51Z</time>
      </trkpt>
      <trkpt lat="45.35522" lon="5.90343">
        <ele>1431.4580078125</ele>
        <time>2017-12-19T11:58:54Z</time>
      </trkpt>
      <trkpt lat="45.35518" lon="5.90337">
        <ele>1433.4580078125</ele>
        <time>2017-12-19T11:58:59Z</time>
      </trkpt>
      <trkpt lat="45.35521" lon="5.90331">
        <ele>1433.4580078125</ele>
        <time>2017-12-19T11:59:06Z</time>
      </trkpt>
      <trkpt lat="45.35525" lon="5.90326">
        <ele>1432.4580078125</ele>
        <time>2017-12-19T11:59:10Z</time>
      </trkpt>
      <trkpt lat="45.35529" lon="5.90323">
        <ele>1433.4580078125</ele>
        <time>2017-12-19T11:59:14Z</time>
      </trkpt>
      <trkpt lat="45.35527" lon="5.90316">
        <ele>1435.4580078125</ele>
        <time>2017-12-19T11:59:22Z</time>
      </trkpt>
      <trkpt lat="45.35525" lon="5.90308">
        <ele>1440.4580078125</ele>
        <time>2017-12-19T11:59:33Z</time>
      </trkpt>
      <trkpt lat="45.3552" lon="5.90305">
        <ele>1441.4580078125</ele>
        <time>2017-12-19T11:59:38Z</time>
      </trkpt>
      <trkpt lat="45.35514" lon="5.90301">
        <ele>1445.4580078125</ele>
        <time>2017-12-19T11:59:42Z</time>
      </trkpt>
      <trkpt lat="45.35511" lon="5.90296">
        <ele>1444.4580078125</ele>
        <time>2017-12-19T11:59:49Z</time>
      </trkpt>
      <trkpt lat="45.35506" lon="5.90294">
        <ele>1445.4580078125</ele>
        <time>2017-12-19T11:59:54Z</time>
      </trkpt>
      <trkpt lat="45.35501" lon="5.90291">
        <ele>1446.4580078125</ele>
        <time>2017-12-19T11:59:59Z</time>
      </trkpt>
      <trkpt lat="45.35497" lon="5.9029">
        <ele>1449.4580078125</ele>
        <time>2017-12-19T12:00:05Z</time>
      </trkpt>
      <trkpt lat="45.35492" lon="5.90292">
        <ele>1455.4580078125</ele>
        <time>2017-12-19T12:00:11Z</time>
      </trkpt>
      <trkpt lat="45.35487" lon="5.90295">
        <ele>1454.4580078125</ele>
        <time>2017-12-19T12:00:15Z</time>
      </trkpt>
      <trkpt lat="45.35482" lon="5.90297">
        <ele>1454.4580078125</ele>
        <time>2017-12-19T12:00:19Z</time>
      </trkpt>
      <trkpt lat="45.35478" lon="5.903">
        <ele>1456.4580078125</ele>
        <time>2017-12-19T12:00:23Z</time>
      </trkpt>
      <trkpt lat="45.35474" lon="5.90297">
        <ele>1454.4580078125</ele>
        <time>2017-12-19T12:00:28Z</time>
      </trkpt>
      <trkpt lat="45.35472" lon="5.9029">
        <ele>1455.4580078125</ele>
        <time>2017-12-19T12:00:35Z</time>
      </trkpt>
      <trkpt lat="45.35474" lon="5.90284">
        <ele>1454.4580078125</ele>
        <time>2017-12-19T12:00:47Z</time>
      </trkpt>
      <trkpt lat="45.35473" lon="5.90274">
        <ele>1456.4580078125</ele>
        <time>2017-12-19T12:00:50Z</time>
      </trkpt>
      <trkpt lat="45.35474" lon="5.90267">
        <ele>1457.4580078125</ele>
        <time>2017-12-19T12:00:54Z</time>
      </trkpt>
      <trkpt lat="45.35474" lon="5.90259">
        <ele>1459.4580078125</ele>
        <time>2017-12-19T12:00:59Z</time>
      </trkpt>
      <trkpt lat="45.35473" lon="5.90253">
        <ele>1459.4580078125</ele>
        <time>2017-12-19T12:01:03Z</time>
      </trkpt>
      <trkpt lat="45.35474" lon="5.90245">
        <ele>1460.4580078125</ele>
        <time>2017-12-19T12:01:08Z</time>
      </trkpt>
      <trkpt lat="45.35474" lon="5.90238">
        <ele>1463.4580078125</ele>
        <time>2017-12-19T12:01:12Z</time>
      </trkpt>
      <trkpt lat="45.35475" lon="5.90231">
        <ele>1464.4580078125</ele>
        <time>2017-12-19T12:01:17Z</time>
      </trkpt>
      <trkpt lat="45.35476" lon="5.90224">
        <ele>1464.4580078125</ele>
        <time>2017-12-19T12:01:20Z</time>
      </trkpt>
      <trkpt lat="45.35477" lon="5.90217">
        <ele>1466.4580078125</ele>
        <time>2017-12-19T12:01:24Z</time>
      </trkpt>
      <trkpt lat="45.35477" lon="5.9021">
        <ele>1468.4580078125</ele>
        <time>2017-12-19T12:01:27Z</time>
      </trkpt>
      <trkpt lat="45.35479" lon="5.90202">
        <ele>1468.4580078125</ele>
        <time>2017-12-19T12:01:31Z</time>
      </trkpt>
      <trkpt lat="45.35481" lon="5.90194">
        <ele>1470.4580078125</ele>
        <time>2017-12-19T12:01:35Z</time>
      </trkpt>
      <trkpt lat="45.35483" lon="5.90189">
        <ele>1470.4580078125</ele>
        <time>2017-12-19T12:01:38Z</time>
      </trkpt>
      <trkpt lat="45.35486" lon="5.90182">
        <ele>1472.4580078125</ele>
        <time>2017-12-19T12:01:43Z</time>
      </trkpt>
      <trkpt lat="45.35488" lon="5.90175">
        <ele>1473.4580078125</ele>
        <time>2017-12-19T12:01:47Z</time>
      </trkpt>
      <trkpt lat="45.35491" lon="5.90169">
        <ele>1474.4580078125</ele>
        <time>2017-12-19T12:01:51Z</time>
      </trkpt>
      <trkpt lat="45.35494" lon="5.90165">
        <ele>1476.4580078125</ele>
        <time>2017-12-19T12:01:54Z</time>
      </trkpt>
      <trkpt lat="45.35499" lon="5.90163">
        <ele>1476.4580078125</ele>
        <time>2017-12-19T12:01:58Z</time>
      </trkpt>
      <trkpt lat="45.35504" lon="5.90162">
        <ele>1476.4580078125</ele>
        <time>2017-12-19T12:02:02Z</time>
      </trkpt>
      <trkpt lat="45.35508" lon="5.90161">
        <ele>1477.4580078125</ele>
        <time>2017-12-19T12:02:06Z</time>
      </trkpt>
      <trkpt lat="45.35513" lon="5.90159">
        <ele>1477.4580078125</ele>
        <time>2017-12-19T12:02:10Z</time>
      </trkpt>
      <trkpt lat="45.35518" lon="5.9016">
        <ele>1477.4580078125</ele>
        <time>2017-12-19T12:02:14Z</time>
      </trkpt>
      <trkpt lat="45.35524" lon="5.90161">
        <ele>1478.4580078125</ele>
        <time>2017-12-19T12:02:19Z</time>
      </trkpt>
      <trkpt lat="45.35528" lon="5.9016">
        <ele>1479.4580078125</ele>
        <time>2017-12-19T12:02:24Z</time>
      </trkpt>
      <trkpt lat="45.35533" lon="5.90159">
        <ele>1479.4580078125</ele>
        <time>2017-12-19T12:02:28Z</time>
      </trkpt>
      <trkpt lat="45.35538" lon="5.90161">
        <ele>1480.4580078125</ele>
        <time>2017-12-19T12:02:33Z</time>
      </trkpt>
      <trkpt lat="45.35543" lon="5.9016">
        <ele>1482.4580078125</ele>
        <time>2017-12-19T12:02:38Z</time>
      </trkpt>
      <trkpt lat="45.35549" lon="5.90161">
        <ele>1486.4580078125</ele>
        <time>2017-12-19T12:02:44Z</time>
      </trkpt>
      <trkpt lat="45.35554" lon="5.90162">
        <ele>1489.4580078125</ele>
        <time>2017-12-19T12:02:49Z</time>
      </trkpt>
      <trkpt lat="45.35559" lon="5.90158">
        <ele>1489.4580078125</ele>
        <time>2017-12-19T12:02:53Z</time>
      </trkpt>
      <trkpt lat="45.35563" lon="5.90158">
        <ele>1489.4580078125</ele>
        <time>2017-12-19T12:02:58Z</time>
      </trkpt>
      <trkpt lat="45.35569" lon="5.90158">
        <ele>1488.4580078125</ele>
        <time>2017-12-19T12:03:02Z</time>
      </trkpt>
      <trkpt lat="45.35574" lon="5.90157">
        <ele>1490.4580078125</ele>
        <time>2017-12-19T12:03:07Z</time>
      </trkpt>
      <trkpt lat="45.35579" lon="5.90158">
        <ele>1493.4580078125</ele>
        <time>2017-12-19T12:03:16Z</time>
      </trkpt>
      <trkpt lat="45.35584" lon="5.90159">
        <ele>1494.4580078125</ele>
        <time>2017-12-19T12:03:21Z</time>
      </trkpt>
      <trkpt lat="45.35588" lon="5.90161">
        <ele>1497.4580078125</ele>
        <time>2017-12-19T12:03:26Z</time>
      </trkpt>
      <trkpt lat="45.35593" lon="5.90164">
        <ele>1500.4580078125</ele>
        <time>2017-12-19T12:03:32Z</time>
      </trkpt>
      <trkpt lat="45.35598" lon="5.90164">
        <ele>1504.4580078125</ele>
        <time>2017-12-19T12:03:37Z</time>
      </trkpt>
      <trkpt lat="45.35603" lon="5.90163">
        <ele>1503.4580078125</ele>
        <time>2017-12-19T12:03:40Z</time>
      </trkpt>
      <trkpt lat="45.35608" lon="5.90162">
        <ele>1502.4580078125</ele>
        <time>2017-12-19T12:03:45Z</time>
      </trkpt>
      <trkpt lat="45.35612" lon="5.90159">
        <ele>1502.4580078125</ele>
        <time>2017-12-19T12:03:49Z</time>
      </trkpt>
      <trkpt lat="45.35617" lon="5.90156">
        <ele>1502.4580078125</ele>
        <time>2017-12-19T12:03:54Z</time>
      </trkpt>
      <trkpt lat="45.35622" lon="5.90152">
        <ele>1504.4580078125</ele>
        <time>2017-12-19T12:03:59Z</time>
      </trkpt>
      <trkpt lat="45.35627" lon="5.9015">
        <ele>1503.4580078125</ele>
        <time>2017-12-19T12:04:07Z</time>
      </trkpt>
      <trkpt lat="45.35632" lon="5.90152">
        <ele>1505.4580078125</ele>
        <time>2017-12-19T12:04:12Z</time>
      </trkpt>
      <trkpt lat="45.35638" lon="5.90152">
        <ele>1508.4580078125</ele>
        <time>2017-12-19T12:04:20Z</time>
      </trkpt>
      <trkpt lat="45.35643" lon="5.90151">
        <ele>1511.4580078125</ele>
        <time>2017-12-19T12:04:25Z</time>
      </trkpt>
      <trkpt lat="45.35648" lon="5.90152">
        <ele>1513.4580078125</ele>
        <time>2017-12-19T12:04:33Z</time>
      </trkpt>
      <trkpt lat="45.35652" lon="5.90152">
        <ele>1516.4580078125</ele>
        <time>2017-12-19T12:04:40Z</time>
      </trkpt>
      <trkpt lat="45.35657" lon="5.90153">
        <ele>1517.4580078125</ele>
        <time>2017-12-19T12:04:44Z</time>
      </trkpt>
      <trkpt lat="45.35662" lon="5.9015">
        <ele>1519.4580078125</ele>
        <time>2017-12-19T12:04:49Z</time>
      </trkpt>
      <trkpt lat="45.35667" lon="5.90147">
        <ele>1518.4580078125</ele>
        <time>2017-12-19T12:04:54Z</time>
      </trkpt>
      <trkpt lat="45.35673" lon="5.90146">
        <ele>1518.4580078125</ele>
        <time>2017-12-19T12:04:59Z</time>
      </trkpt>
      <trkpt lat="45.35678" lon="5.90148">
        <ele>1522.4580078125</ele>
        <time>2017-12-19T12:05:04Z</time>
      </trkpt>
      <trkpt lat="45.35676" lon="5.90156">
        <ele>1528.4580078125</ele>
        <time>2017-12-19T12:06:23Z</time>
      </trkpt>
      <trkpt lat="45.35672" lon="5.90159">
        <ele>1528.4580078125</ele>
        <time>2017-12-19T12:06:24Z</time>
      </trkpt>
      <trkpt lat="45.3566" lon="5.90162">
        <ele>1525.4580078125</ele>
        <time>2017-12-19T12:06:33Z</time>
      </trkpt>
      <trkpt lat="45.35657" lon="5.90169">
        <ele>1523.4580078125</ele>
        <time>2017-12-19T12:06:35Z</time>
      </trkpt>
      <trkpt lat="45.3565" lon="5.90174">
        <ele>1522.4580078125</ele>
        <time>2017-12-19T12:06:37Z</time>
      </trkpt>
      <trkpt lat="45.35641" lon="5.90186">
        <ele>1519.4580078125</ele>
        <time>2017-12-19T12:06:40Z</time>
      </trkpt>
      <trkpt lat="45.35632" lon="5.90201">
        <ele>1518.4580078125</ele>
        <time>2017-12-19T12:06:42Z</time>
      </trkpt>
      <trkpt lat="45.35617" lon="5.90219">
        <ele>1514.4580078125</ele>
        <time>2017-12-19T12:06:44Z</time>
      </trkpt>
      <trkpt lat="45.35605" lon="5.90235">
        <ele>1512.4580078125</ele>
        <time>2017-12-19T12:06:46Z</time>
      </trkpt>
      <trkpt lat="45.35601" lon="5.90258">
        <ele>1257.4580078125</ele>
        <time>2017-12-19T12:06:48Z</time>
      </trkpt>
      <trkpt lat="45.35595" lon="5.90273">
        <ele>1344.4580078125</ele>
        <time>2017-12-19T12:06:50Z</time>
      </trkpt>
      <trkpt lat="45.35588" lon="5.90281">
        <ele>1406.4580078125</ele>
        <time>2017-12-19T12:06:52Z</time>
      </trkpt>
      <trkpt lat="45.35581" lon="5.90277">
        <ele>1435.4580078125</ele>
        <time>2017-12-19T12:06:54Z</time>
      </trkpt>
      <trkpt lat="45.35575" lon="5.90283">
        <ele>1446.4580078125</ele>
        <time>2017-12-19T12:06:56Z</time>
      </trkpt>
      <trkpt lat="45.35569" lon="5.90288">
        <ele>1454.4580078125</ele>
        <time>2017-12-19T12:06:58Z</time>
      </trkpt>
      <trkpt lat="45.35562" lon="5.90292">
        <ele>1453.4580078125</ele>
        <time>2017-12-19T12:07:00Z</time>
      </trkpt>
      <trkpt lat="45.3555" lon="5.903">
        <ele>1451.4580078125</ele>
        <time>2017-12-19T12:07:03Z</time>
      </trkpt>
      <trkpt lat="45.3555" lon="5.90307">
        <ele>1447.4580078125</ele>
        <time>2017-12-19T12:07:06Z</time>
      </trkpt>
      <trkpt lat="45.35545" lon="5.90334">
        <ele>1445.4580078125</ele>
        <time>2017-12-19T12:07:09Z</time>
      </trkpt>
      <trkpt lat="45.35547" lon="5.90355">
        <ele>1444.4580078125</ele>
        <time>2017-12-19T12:07:11Z</time>
      </trkpt>
      <trkpt lat="45.35548" lon="5.90364">
        <ele>1444.4580078125</ele>
        <time>2017-12-19T12:07:12Z</time>
      </trkpt>
      <trkpt lat="45.35553" lon="5.90372">
        <ele>1442.4580078125</ele>
        <time>2017-12-19T12:07:14Z</time>
      </trkpt>
      <trkpt lat="45.35549" lon="5.90375">
        <ele>1440.4580078125</ele>
        <time>2017-12-19T12:07:17Z</time>
      </trkpt>
      <trkpt lat="45.35549" lon="5.90368">
        <ele>1437.4580078125</ele>
        <time>2017-12-19T12:07:33Z</time>
      </trkpt>
      <trkpt lat="45.35547" lon="5.90361">
        <ele>1434.4580078125</ele>
        <time>2017-12-19T12:08:53Z</time>
      </trkpt>
      <trkpt lat="45.35546" lon="5.90353">
        <ele>1430.4580078125</ele>
        <time>2017-12-19T12:08:55Z</time>
      </trkpt>
      <trkpt lat="45.35541" lon="5.9035">
        <ele>1429.4580078125</ele>
        <time>2017-12-19T12:08:58Z</time>
      </trkpt>
      <trkpt lat="45.35537" lon="5.9035">
        <ele>1430.4580078125</ele>
        <time>2017-12-19T12:09:04Z</time>
      </trkpt>
      <trkpt lat="45.35533" lon="5.90343">
        <ele>1425.4580078125</ele>
        <time>2017-12-19T12:09:08Z</time>
      </trkpt>
      <trkpt lat="45.35527" lon="5.90342">
        <ele>1429.4580078125</ele>
        <time>2017-12-19T12:09:13Z</time>
      </trkpt>
      <trkpt lat="45.35521" lon="5.90339">
        <ele>1431.4580078125</ele>
        <time>2017-12-19T12:09:17Z</time>
      </trkpt>
      <trkpt lat="45.35521" lon="5.90332">
        <ele>1432.4580078125</ele>
        <time>2017-12-19T12:09:29Z</time>
      </trkpt>
      <trkpt lat="45.35524" lon="5.90325">
        <ele>1430.4580078125</ele>
        <time>2017-12-19T12:09:32Z</time>
      </trkpt>
      <trkpt lat="45.35528" lon="5.90321">
        <ele>1434.4580078125</ele>
        <time>2017-12-19T12:09:37Z</time>
      </trkpt>
      <trkpt lat="45.35531" lon="5.90315">
        <ele>1435.4580078125</ele>
        <time>2017-12-19T12:09:42Z</time>
      </trkpt>
      <trkpt lat="45.35526" lon="5.90312">
        <ele>1436.4580078125</ele>
        <time>2017-12-19T12:09:48Z</time>
      </trkpt>
      <trkpt lat="45.35524" lon="5.90307">
        <ele>1440.4580078125</ele>
        <time>2017-12-19T12:09:56Z</time>
      </trkpt>
      <trkpt lat="45.35519" lon="5.90302">
        <ele>1441.4580078125</ele>
        <time>2017-12-19T12:10:01Z</time>
      </trkpt>
      <trkpt lat="45.35515" lon="5.90302">
        <ele>1442.4580078125</ele>
        <time>2017-12-19T12:10:09Z</time>
      </trkpt>
      <trkpt lat="45.35511" lon="5.90298">
        <ele>1442.4580078125</ele>
        <time>2017-12-19T12:10:14Z</time>
      </trkpt>
      <trkpt lat="45.35506" lon="5.90293">
        <ele>1441.4580078125</ele>
        <time>2017-12-19T12:10:20Z</time>
      </trkpt>
      <trkpt lat="45.35502" lon="5.90292">
        <ele>1445.4580078125</ele>
        <time>2017-12-19T12:10:25Z</time>
      </trkpt>
      <trkpt lat="45.35497" lon="5.90291">
        <ele>1447.4580078125</ele>
        <time>2017-12-19T12:10:29Z</time>
      </trkpt>
      <trkpt lat="45.35492" lon="5.90294">
        <ele>1451.4580078125</ele>
        <time>2017-12-19T12:10:34Z</time>
      </trkpt>
      <trkpt lat="45.35488" lon="5.90298">
        <ele>1454.4580078125</ele>
        <time>2017-12-19T12:10:40Z</time>
      </trkpt>
      <trkpt lat="45.35483" lon="5.90298">
        <ele>1454.4580078125</ele>
        <time>2017-12-19T12:10:44Z</time>
      </trkpt>
      <trkpt lat="45.35477" lon="5.90296">
        <ele>1454.4580078125</ele>
        <time>2017-12-19T12:10:50Z</time>
      </trkpt>
      <trkpt lat="45.35473" lon="5.9029">
        <ele>1456.4580078125</ele>
        <time>2017-12-19T12:10:54Z</time>
      </trkpt>
      <trkpt lat="45.35472" lon="5.90281">
        <ele>1458.4580078125</ele>
        <time>2017-12-19T12:11:01Z</time>
      </trkpt>
      <trkpt lat="45.35473" lon="5.90275">
        <ele>1460.4580078125</ele>
        <time>2017-12-19T12:11:05Z</time>
      </trkpt>
      <trkpt lat="45.35473" lon="5.90268">
        <ele>1461.4580078125</ele>
        <time>2017-12-19T12:11:11Z</time>
      </trkpt>
      <trkpt lat="45.35473" lon="5.90261">
        <ele>1460.4580078125</ele>
        <time>2017-12-19T12:11:16Z</time>
      </trkpt>
      <trkpt lat="45.35472" lon="5.90254">
        <ele>1462.4580078125</ele>
        <time>2017-12-19T12:11:21Z</time>
      </trkpt>
      <trkpt lat="45.35471" lon="5.90247">
        <ele>1465.4580078125</ele>
        <time>2017-12-19T12:11:26Z</time>
      </trkpt>
      <trkpt lat="45.35472" lon="5.90239">
        <ele>1466.4580078125</ele>
        <time>2017-12-19T12:11:31Z</time>
      </trkpt>
      <trkpt lat="45.35473" lon="5.90232">
        <ele>1467.4580078125</ele>
        <time>2017-12-19T12:11:35Z</time>
      </trkpt>
      <trkpt lat="45.35475" lon="5.90225">
        <ele>1469.4580078125</ele>
        <time>2017-12-19T12:11:39Z</time>
      </trkpt>
      <trkpt lat="45.35476" lon="5.90218">
        <ele>1471.4580078125</ele>
        <time>2017-12-19T12:11:43Z</time>
      </trkpt>
      <trkpt lat="45.35477" lon="5.90211">
        <ele>1472.4580078125</ele>
        <time>2017-12-19T12:11:47Z</time>
      </trkpt>
      <trkpt lat="45.35479" lon="5.90203">
        <ele>1473.4580078125</ele>
        <time>2017-12-19T12:11:51Z</time>
      </trkpt>
      <trkpt lat="45.3548" lon="5.90196">
        <ele>1475.4580078125</ele>
        <time>2017-12-19T12:11:55Z</time>
      </trkpt>
      <trkpt lat="45.35482" lon="5.90189">
        <ele>1476.4580078125</ele>
        <time>2017-12-19T12:11:59Z</time>
      </trkpt>
      <trkpt lat="45.35485" lon="5.90182">
        <ele>1477.4580078125</ele>
        <time>2017-12-19T12:12:03Z</time>
      </trkpt>
      <trkpt lat="45.35487" lon="5.90176">
        <ele>1479.4580078125</ele>
        <time>2017-12-19T12:12:07Z</time>
      </trkpt>
      <trkpt lat="45.35491" lon="5.9017">
        <ele>1479.4580078125</ele>
        <time>2017-12-19T12:12:11Z</time>
      </trkpt>
      <trkpt lat="45.35495" lon="5.90166">
        <ele>1482.4580078125</ele>
        <time>2017-12-19T12:12:16Z</time>
      </trkpt>
      <trkpt lat="45.35501" lon="5.90163">
        <ele>1480.4580078125</ele>
        <time>2017-12-19T12:12:20Z</time>
      </trkpt>
      <trkpt lat="45.35506" lon="5.90161">
        <ele>1481.4580078125</ele>
        <time>2017-12-19T12:12:24Z</time>
      </trkpt>
      <trkpt lat="45.35511" lon="5.90161">
        <ele>1482.4580078125</ele>
        <time>2017-12-19T12:12:28Z</time>
      </trkpt>
      <trkpt lat="45.35516" lon="5.90161">
        <ele>1481.4580078125</ele>
        <time>2017-12-19T12:12:32Z</time>
      </trkpt>
      <trkpt lat="45.35522" lon="5.90162">
        <ele>1481.4580078125</ele>
        <time>2017-12-19T12:12:37Z</time>
      </trkpt>
      <trkpt lat="45.35527" lon="5.90162">
        <ele>1481.4580078125</ele>
        <time>2017-12-19T12:12:42Z</time>
      </trkpt>
      <trkpt lat="45.35532" lon="5.90163">
        <ele>1483.4580078125</ele>
        <time>2017-12-19T12:12:47Z</time>
      </trkpt>
      <trkpt lat="45.35536" lon="5.90163">
        <ele>1484.4580078125</ele>
        <time>2017-12-19T12:12:51Z</time>
      </trkpt>
      <trkpt lat="45.35541" lon="5.90165">
        <ele>1487.4580078125</ele>
        <time>2017-12-19T12:12:56Z</time>
      </trkpt>
      <trkpt lat="45.35545" lon="5.90162">
        <ele>1486.4580078125</ele>
        <time>2017-12-19T12:13:00Z</time>
      </trkpt>
      <trkpt lat="45.3555" lon="5.90161">
        <ele>1489.4580078125</ele>
        <time>2017-12-19T12:13:07Z</time>
      </trkpt>
      <trkpt lat="45.35555" lon="5.90164">
        <ele>1493.4580078125</ele>
        <time>2017-12-19T12:13:12Z</time>
      </trkpt>
      <trkpt lat="45.3556" lon="5.90161">
        <ele>1494.4580078125</ele>
        <time>2017-12-19T12:13:17Z</time>
      </trkpt>
      <trkpt lat="45.35565" lon="5.90161">
        <ele>1493.4580078125</ele>
        <time>2017-12-19T12:13:23Z</time>
      </trkpt>
      <trkpt lat="45.35571" lon="5.90162">
        <ele>1492.4580078125</ele>
        <time>2017-12-19T12:13:29Z</time>
      </trkpt>
      <trkpt lat="45.35576" lon="5.9016">
        <ele>1492.4580078125</ele>
        <time>2017-12-19T12:13:33Z</time>
      </trkpt>
      <trkpt lat="45.35581" lon="5.9016">
        <ele>1495.4580078125</ele>
        <time>2017-12-19T12:13:37Z</time>
      </trkpt>
      <trkpt lat="45.35586" lon="5.9016">
        <ele>1497.4580078125</ele>
        <time>2017-12-19T12:13:43Z</time>
      </trkpt>
      <trkpt lat="45.35591" lon="5.90156">
        <ele>1497.4580078125</ele>
        <time>2017-12-19T12:13:47Z</time>
      </trkpt>
      <trkpt lat="45.35596" lon="5.90155">
        <ele>1499.4580078125</ele>
        <time>2017-12-19T12:13:53Z</time>
      </trkpt>
      <trkpt lat="45.35599" lon="5.9016">
        <ele>1503.4580078125</ele>
        <time>2017-12-19T12:13:58Z</time>
      </trkpt>
      <trkpt lat="45.35604" lon="5.90161">
        <ele>1505.4580078125</ele>
        <time>2017-12-19T12:14:03Z</time>
      </trkpt>
      <trkpt lat="45.35608" lon="5.90158">
        <ele>1506.4580078125</ele>
        <time>2017-12-19T12:14:07Z</time>
      </trkpt>
      <trkpt lat="45.35613" lon="5.90156">
        <ele>1506.4580078125</ele>
        <time>2017-12-19T12:14:12Z</time>
      </trkpt>
      <trkpt lat="45.35617" lon="5.90153">
        <ele>1508.4580078125</ele>
        <time>2017-12-19T12:14:18Z</time>
      </trkpt>
      <trkpt lat="45.35622" lon="5.90156">
        <ele>1510.4580078125</ele>
        <time>2017-12-19T12:14:25Z</time>
      </trkpt>
      <trkpt lat="45.35626" lon="5.90155">
        <ele>1512.4580078125</ele>
        <time>2017-12-19T12:14:29Z</time>
      </trkpt>
      <trkpt lat="45.35632" lon="5.90156">
        <ele>1515.4580078125</ele>
        <time>2017-12-19T12:14:35Z</time>
      </trkpt>
      <trkpt lat="45.35638" lon="5.90152">
        <ele>1514.4580078125</ele>
        <time>2017-12-19T12:14:41Z</time>
      </trkpt>
      <trkpt lat="45.35642" lon="5.90155">
        <ele>1520.4580078125</ele>
        <time>2017-12-19T12:14:47Z</time>
      </trkpt>
      <trkpt lat="45.35647" lon="5.90154">
        <ele>1520.4580078125</ele>
        <time>2017-12-19T12:14:51Z</time>
      </trkpt>
      <trkpt lat="45.35652" lon="5.90154">
        <ele>1522.4580078125</ele>
        <time>2017-12-19T12:14:56Z</time>
      </trkpt>
      <trkpt lat="45.35656" lon="5.90156">
        <ele>1526.4580078125</ele>
        <time>2017-12-19T12:15:01Z</time>
      </trkpt>
      <trkpt lat="45.35661" lon="5.90157">
        <ele>1525.4580078125</ele>
        <time>2017-12-19T12:15:07Z</time>
      </trkpt>
      <trkpt lat="45.35666" lon="5.90156">
        <ele>1527.4580078125</ele>
        <time>2017-12-19T12:15:13Z</time>
      </trkpt>
      <trkpt lat="45.35672" lon="5.90159">
        <ele>1532.4580078125</ele>
        <time>2017-12-19T12:15:21Z</time>
      </trkpt>
      <trkpt lat="45.35675" lon="5.90155">
        <ele>1532.4580078125</ele>
        <time>2017-12-19T12:15:25Z</time>
      </trkpt>
      <trkpt lat="45.35674" lon="5.90147">
        <ele>1537.4580078125</ele>
        <time>2017-12-19T12:15:35Z</time>
      </trkpt>
      <trkpt lat="45.35673" lon="5.90141">
        <ele>1537.4580078125</ele>
        <time>2017-12-19T12:15:41Z</time>
      </trkpt>
      <trkpt lat="45.3567" lon="5.90135">
        <ele>1539.4580078125</ele>
        <time>2017-12-19T12:15:51Z</time>
      </trkpt>
      <trkpt lat="45.35668" lon="5.90129">
        <ele>1538.4580078125</ele>
        <time>2017-12-19T12:15:57Z</time>
      </trkpt>
      <trkpt lat="45.35666" lon="5.90123">
        <ele>1539.4580078125</ele>
        <time>2017-12-19T12:16:03Z</time>
      </trkpt>
      <trkpt lat="45.35663" lon="5.90117">
        <ele>1541.4580078125</ele>
        <time>2017-12-19T12:16:09Z</time>
      </trkpt>
      <trkpt lat="45.35659" lon="5.90114">
        <ele>1545.4580078125</ele>
        <time>2017-12-19T12:16:17Z</time>
      </trkpt>
      <trkpt lat="45.35659" lon="5.90107">
        <ele>1546.4580078125</ele>
        <time>2017-12-19T12:16:20Z</time>
      </trkpt>
      <trkpt lat="45.35654" lon="5.90103">
        <ele>1550.4580078125</ele>
        <time>2017-12-19T12:16:26Z</time>
      </trkpt>
      <trkpt lat="45.35651" lon="5.90099">
        <ele>1551.4580078125</ele>
        <time>2017-12-19T12:16:31Z</time>
      </trkpt>
      <trkpt lat="45.35648" lon="5.90094">
        <ele>1551.4580078125</ele>
        <time>2017-12-19T12:16:35Z</time>
      </trkpt>
      <trkpt lat="45.35646" lon="5.90087">
        <ele>1552.4580078125</ele>
        <time>2017-12-19T12:16:39Z</time>
      </trkpt>
      <trkpt lat="45.35644" lon="5.90081">
        <ele>1554.4580078125</ele>
        <time>2017-12-19T12:16:46Z</time>
      </trkpt>
      <trkpt lat="45.35641" lon="5.90075">
        <ele>1554.4580078125</ele>
        <time>2017-12-19T12:16:51Z</time>
      </trkpt>
      <trkpt lat="45.35637" lon="5.9007">
        <ele>1555.4580078125</ele>
        <time>2017-12-19T12:16:55Z</time>
      </trkpt>
      <trkpt lat="45.35635" lon="5.90063">
        <ele>1555.4580078125</ele>
        <time>2017-12-19T12:16:59Z</time>
      </trkpt>
      <trkpt lat="45.35633" lon="5.90057">
        <ele>1554.4580078125</ele>
        <time>2017-12-19T12:17:02Z</time>
      </trkpt>
      <trkpt lat="45.3563" lon="5.90051">
        <ele>1554.4580078125</ele>
        <time>2017-12-19T12:17:07Z</time>
      </trkpt>
      <trkpt lat="45.35627" lon="5.90045">
        <ele>1559.4580078125</ele>
        <time>2017-12-19T12:17:13Z</time>
      </trkpt>
      <trkpt lat="45.35624" lon="5.90039">
        <ele>1561.4580078125</ele>
        <time>2017-12-19T12:17:18Z</time>
      </trkpt>
      <trkpt lat="45.35623" lon="5.90031">
        <ele>1560.4580078125</ele>
        <time>2017-12-19T12:17:24Z</time>
      </trkpt>
      <trkpt lat="45.35623" lon="5.90024">
        <ele>1561.4580078125</ele>
        <time>2017-12-19T12:17:30Z</time>
      </trkpt>
      <trkpt lat="45.35624" lon="5.90018">
        <ele>1558.4580078125</ele>
        <time>2017-12-19T12:17:33Z</time>
      </trkpt>
      <trkpt lat="45.35621" lon="5.90012">
        <ele>1563.4580078125</ele>
        <time>2017-12-19T12:17:37Z</time>
      </trkpt>
      <trkpt lat="45.35619" lon="5.90006">
        <ele>1564.4580078125</ele>
        <time>2017-12-19T12:17:43Z</time>
      </trkpt>
      <trkpt lat="45.35619" lon="5.89999">
        <ele>1563.4580078125</ele>
        <time>2017-12-19T12:17:46Z</time>
      </trkpt>
      <trkpt lat="45.35621" lon="5.89992">
        <ele>1563.4580078125</ele>
        <time>2017-12-19T12:17:48Z</time>
      </trkpt>
      <trkpt lat="45.3562" lon="5.89983">
        <ele>1563.4580078125</ele>
        <time>2017-12-19T12:18:00Z</time>
      </trkpt>
      <trkpt lat="45.3562" lon="5.89975">
        <ele>1567.4580078125</ele>
        <time>2017-12-19T12:18:10Z</time>
      </trkpt>
      <trkpt lat="45.35624" lon="5.89969">
        <ele>1570.4580078125</ele>
        <time>2017-12-19T12:18:15Z</time>
      </trkpt>
      <trkpt lat="45.35625" lon="5.89962">
        <ele>1572.4580078125</ele>
        <time>2017-12-19T12:18:21Z</time>
      </trkpt>
      <trkpt lat="45.35626" lon="5.89955">
        <ele>1572.4580078125</ele>
        <time>2017-12-19T12:18:24Z</time>
      </trkpt>
      <trkpt lat="45.35627" lon="5.89947">
        <ele>1572.4580078125</ele>
        <time>2017-12-19T12:18:29Z</time>
      </trkpt>
      <trkpt lat="45.35631" lon="5.89942">
        <ele>1577.4580078125</ele>
        <time>2017-12-19T12:18:37Z</time>
      </trkpt>
      <trkpt lat="45.35634" lon="5.89935">
        <ele>1576.4580078125</ele>
        <time>2017-12-19T12:18:43Z</time>
      </trkpt>
      <trkpt lat="45.35636" lon="5.89929">
        <ele>1581.4580078125</ele>
        <time>2017-12-19T12:18:57Z</time>
      </trkpt>
      <trkpt lat="45.35639" lon="5.89919">
        <ele>1581.4580078125</ele>
        <time>2017-12-19T12:19:00Z</time>
      </trkpt>
      <trkpt lat="45.35637" lon="5.89913">
        <ele>1586.4580078125</ele>
        <time>2017-12-19T12:19:11Z</time>
      </trkpt>
      <trkpt lat="45.35636" lon="5.89907">
        <ele>1592.4580078125</ele>
        <time>2017-12-19T12:19:17Z</time>
      </trkpt>
      <trkpt lat="45.35639" lon="5.89895">
        <ele>1595.4580078125</ele>
        <time>2017-12-19T12:19:22Z</time>
      </trkpt>
      <trkpt lat="45.35641" lon="5.89889">
        <ele>1593.4580078125</ele>
        <time>2017-12-19T12:19:27Z</time>
      </trkpt>
      <trkpt lat="45.35642" lon="5.89883">
        <ele>1593.4580078125</ele>
        <time>2017-12-19T12:19:30Z</time>
      </trkpt>
      <trkpt lat="45.35641" lon="5.89874">
        <ele>1589.4580078125</ele>
        <time>2017-12-19T12:19:34Z</time>
      </trkpt>
      <trkpt lat="45.3564" lon="5.89869">
        <ele>1593.4580078125</ele>
        <time>2017-12-19T12:19:42Z</time>
      </trkpt>
      <trkpt lat="45.3564" lon="5.89862">
        <ele>1592.4580078125</ele>
        <time>2017-12-19T12:19:45Z</time>
      </trkpt>
      <trkpt lat="45.35637" lon="5.89855">
        <ele>1592.4580078125</ele>
        <time>2017-12-19T12:19:48Z</time>
      </trkpt>
      <trkpt lat="45.35632" lon="5.89856">
        <ele>1597.4580078125</ele>
        <time>2017-12-19T12:19:53Z</time>
      </trkpt>
      <trkpt lat="45.35627" lon="5.89855">
        <ele>1603.4580078125</ele>
        <time>2017-12-19T12:19:58Z</time>
      </trkpt>
      <trkpt lat="45.35623" lon="5.89849">
        <ele>1604.4580078125</ele>
        <time>2017-12-19T12:20:04Z</time>
      </trkpt>
      <trkpt lat="45.35622" lon="5.89843">
        <ele>1604.4580078125</ele>
        <time>2017-12-19T12:20:08Z</time>
      </trkpt>
      <trkpt lat="45.35626" lon="5.8984">
        <ele>1610.4580078125</ele>
        <time>2017-12-19T12:20:15Z</time>
      </trkpt>
      <trkpt lat="45.35629" lon="5.89845">
        <ele>1612.4580078125</ele>
        <time>2017-12-19T12:20:20Z</time>
      </trkpt>
      <trkpt lat="45.35634" lon="5.89843">
        <ele>1613.4580078125</ele>
        <time>2017-12-19T12:20:26Z</time>
      </trkpt>
      <trkpt lat="45.35635" lon="5.89835">
        <ele>1614.4580078125</ele>
        <time>2017-12-19T12:20:32Z</time>
      </trkpt>
      <trkpt lat="45.35635" lon="5.89828">
        <ele>1614.4580078125</ele>
        <time>2017-12-19T12:20:38Z</time>
      </trkpt>
      <trkpt lat="45.35632" lon="5.89822">
        <ele>1617.4580078125</ele>
        <time>2017-12-19T12:20:45Z</time>
      </trkpt>
      <trkpt lat="45.35629" lon="5.89817">
        <ele>1620.4580078125</ele>
        <time>2017-12-19T12:20:51Z</time>
      </trkpt>
      <trkpt lat="45.35629" lon="5.8981">
        <ele>1619.4580078125</ele>
        <time>2017-12-19T12:20:55Z</time>
      </trkpt>
      <trkpt lat="45.35627" lon="5.89805">
        <ele>1620.4580078125</ele>
        <time>2017-12-19T12:21:00Z</time>
      </trkpt>
      <trkpt lat="45.35625" lon="5.89798">
        <ele>1621.4580078125</ele>
        <time>2017-12-19T12:21:05Z</time>
      </trkpt>
      <trkpt lat="45.35623" lon="5.8979">
        <ele>1623.4580078125</ele>
        <time>2017-12-19T12:21:11Z</time>
      </trkpt>
      <trkpt lat="45.35623" lon="5.89783">
        <ele>1623.4580078125</ele>
        <time>2017-12-19T12:21:17Z</time>
      </trkpt>
      <trkpt lat="45.35622" lon="5.89776">
        <ele>1623.4580078125</ele>
        <time>2017-12-19T12:21:23Z</time>
      </trkpt>
      <trkpt lat="45.35622" lon="5.89769">
        <ele>1626.4580078125</ele>
        <time>2017-12-19T12:21:28Z</time>
      </trkpt>
      <trkpt lat="45.35622" lon="5.89763">
        <ele>1628.4580078125</ele>
        <time>2017-12-19T12:21:33Z</time>
      </trkpt>
      <trkpt lat="45.35621" lon="5.89756">
        <ele>1631.4580078125</ele>
        <time>2017-12-19T12:21:39Z</time>
      </trkpt>
      <trkpt lat="45.35621" lon="5.89748">
        <ele>1633.4580078125</ele>
        <time>2017-12-19T12:21:45Z</time>
      </trkpt>
      <trkpt lat="45.3562" lon="5.89741">
        <ele>1630.4580078125</ele>
        <time>2017-12-19T12:21:50Z</time>
      </trkpt>
      <trkpt lat="45.35619" lon="5.89734">
        <ele>1631.4580078125</ele>
        <time>2017-12-19T12:21:55Z</time>
      </trkpt>
      <trkpt lat="45.35619" lon="5.89727">
        <ele>1630.4580078125</ele>
        <time>2017-12-19T12:22:01Z</time>
      </trkpt>
      <trkpt lat="45.35619" lon="5.89721">
        <ele>1632.4580078125</ele>
        <time>2017-12-19T12:22:07Z</time>
      </trkpt>
      <trkpt lat="45.35617" lon="5.89714">
        <ele>1632.4580078125</ele>
        <time>2017-12-19T12:22:15Z</time>
      </trkpt>
      <trkpt lat="45.35618" lon="5.89707">
        <ele>1633.4580078125</ele>
        <time>2017-12-19T12:22:27Z</time>
      </trkpt>
      <trkpt lat="45.35617" lon="5.897">
        <ele>1638.4580078125</ele>
        <time>2017-12-19T12:22:33Z</time>
      </trkpt>
      <trkpt lat="45.35616" lon="5.89694">
        <ele>1642.4580078125</ele>
        <time>2017-12-19T12:22:37Z</time>
      </trkpt>
      <trkpt lat="45.35616" lon="5.89687">
        <ele>1642.4580078125</ele>
        <time>2017-12-19T12:22:43Z</time>
      </trkpt>
      <trkpt lat="45.3562" lon="5.89684">
        <ele>1643.4580078125</ele>
        <time>2017-12-19T12:22:47Z</time>
      </trkpt>
      <trkpt lat="45.35621" lon="5.89678">
        <ele>1647.4580078125</ele>
        <time>2017-12-19T12:22:54Z</time>
      </trkpt>
      <trkpt lat="45.35618" lon="5.89673">
        <ele>1651.4580078125</ele>
        <time>2017-12-19T12:23:01Z</time>
      </trkpt>
      <trkpt lat="45.35618" lon="5.89665">
        <ele>1658.4580078125</ele>
        <time>2017-12-19T12:23:14Z</time>
      </trkpt>
      <trkpt lat="45.35615" lon="5.89659">
        <ele>1661.4580078125</ele>
        <time>2017-12-19T12:23:19Z</time>
      </trkpt>
      <trkpt lat="45.35617" lon="5.89652">
        <ele>1658.4580078125</ele>
        <time>2017-12-19T12:23:24Z</time>
      </trkpt>
      <trkpt lat="45.35617" lon="5.89646">
        <ele>1657.4580078125</ele>
        <time>2017-12-19T12:23:28Z</time>
      </trkpt>
      <trkpt lat="45.35619" lon="5.8964">
        <ele>1663.4580078125</ele>
        <time>2017-12-19T12:23:40Z</time>
      </trkpt>
      <trkpt lat="45.35625" lon="5.89638">
        <ele>1663.4580078125</ele>
        <time>2017-12-19T12:23:45Z</time>
      </trkpt>
      <trkpt lat="45.35629" lon="5.89643">
        <ele>1669.4580078125</ele>
        <time>2017-12-19T12:23:53Z</time>
      </trkpt>
      <trkpt lat="45.3563" lon="5.8965">
        <ele>1673.4580078125</ele>
        <time>2017-12-19T12:23:58Z</time>
      </trkpt>
      <trkpt lat="45.35635" lon="5.8965">
        <ele>1675.4580078125</ele>
        <time>2017-12-19T12:24:08Z</time>
      </trkpt>
      <trkpt lat="45.3564" lon="5.89649">
        <ele>1676.4580078125</ele>
        <time>2017-12-19T12:24:14Z</time>
      </trkpt>
      <trkpt lat="45.35645" lon="5.8965">
        <ele>1678.4580078125</ele>
        <time>2017-12-19T12:24:21Z</time>
      </trkpt>
      <trkpt lat="45.35648" lon="5.89644">
        <ele>1680.4580078125</ele>
        <time>2017-12-19T12:24:34Z</time>
      </trkpt>
      <trkpt lat="45.35646" lon="5.89638">
        <ele>1683.4580078125</ele>
        <time>2017-12-19T12:24:44Z</time>
      </trkpt>
      <trkpt lat="45.35646" lon="5.89631">
        <ele>1683.4580078125</ele>
        <time>2017-12-19T12:24:49Z</time>
      </trkpt>
      <trkpt lat="45.35649" lon="5.89625">
        <ele>1689.4580078125</ele>
        <time>2017-12-19T12:25:01Z</time>
      </trkpt>
      <trkpt lat="45.35654" lon="5.89627">
        <ele>1693.4580078125</ele>
        <time>2017-12-19T12:25:09Z</time>
      </trkpt>
      <trkpt lat="45.35652" lon="5.8962">
        <ele>1694.4580078125</ele>
        <time>2017-12-19T12:25:18Z</time>
      </trkpt>
      <trkpt lat="45.35652" lon="5.89613">
        <ele>1694.4580078125</ele>
        <time>2017-12-19T12:25:24Z</time>
      </trkpt>
      <trkpt lat="45.3565" lon="5.89606">
        <ele>1696.4580078125</ele>
        <time>2017-12-19T12:25:30Z</time>
      </trkpt>
      <trkpt lat="45.35648" lon="5.896">
        <ele>1696.4580078125</ele>
        <time>2017-12-19T12:25:35Z</time>
      </trkpt>
      <trkpt lat="45.35646" lon="5.89594">
        <ele>1698.4580078125</ele>
        <time>2017-12-19T12:25:39Z</time>
      </trkpt>
      <trkpt lat="45.35643" lon="5.8959">
        <ele>1699.4580078125</ele>
        <time>2017-12-19T12:25:45Z</time>
      </trkpt>
      <trkpt lat="45.35638" lon="5.89587">
        <ele>1701.4580078125</ele>
        <time>2017-12-19T12:25:51Z</time>
      </trkpt>
      <trkpt lat="45.35636" lon="5.89581">
        <ele>1701.4580078125</ele>
        <time>2017-12-19T12:25:54Z</time>
      </trkpt>
      <trkpt lat="45.35641" lon="5.89579">
        <ele>1714.4580078125</ele>
        <time>2017-12-19T12:26:14Z</time>
      </trkpt>
      <trkpt lat="45.35645" lon="5.89577">
        <ele>1711.4580078125</ele>
        <time>2017-12-19T12:26:24Z</time>
      </trkpt>
      <trkpt lat="45.3565" lon="5.89576">
        <ele>1711.4580078125</ele>
        <time>2017-12-19T12:26:29Z</time>
      </trkpt>
      <trkpt lat="45.35654" lon="5.89573">
        <ele>1713.4580078125</ele>
        <time>2017-12-19T12:26:39Z</time>
      </trkpt>
      <trkpt lat="45.35659" lon="5.89575">
        <ele>1714.4580078125</ele>
        <time>2017-12-19T12:26:46Z</time>
      </trkpt>
      <trkpt lat="45.35664" lon="5.89572">
        <ele>1715.4580078125</ele>
        <time>2017-12-19T12:26:53Z</time>
      </trkpt>
      <trkpt lat="45.35665" lon="5.89566">
        <ele>1717.4580078125</ele>
        <time>2017-12-19T12:27:07Z</time>
      </trkpt>
      <trkpt lat="45.35661" lon="5.89562">
        <ele>1439.4580078125</ele>
        <time>2017-12-19T12:27:18Z</time>
      </trkpt>
      <trkpt lat="45.35656" lon="5.89558">
        <ele>1632.4580078125</ele>
        <time>2017-12-19T12:27:25Z</time>
      </trkpt>
      <trkpt lat="45.35653" lon="5.89553">
        <ele>1679.45703125</ele>
        <time>2017-12-19T12:27:31Z</time>
      </trkpt>
      <trkpt lat="45.35657" lon="5.89549">
        <ele>1698.4580078125</ele>
        <time>2017-12-19T12:27:43Z</time>
      </trkpt>
      <trkpt lat="45.35661" lon="5.89548">
        <ele>1710.4580078125</ele>
        <time>2017-12-19T12:27:47Z</time>
      </trkpt>
      <trkpt lat="45.35666" lon="5.89548">
        <ele>1719.4580078125</ele>
        <time>2017-12-19T12:27:51Z</time>
      </trkpt>
      <trkpt lat="45.3567" lon="5.89552">
        <ele>1724.4580078125</ele>
        <time>2017-12-19T12:27:55Z</time>
      </trkpt>
      <trkpt lat="45.35672" lon="5.89558">
        <ele>1734.4580078125</ele>
        <time>2017-12-19T12:27:59Z</time>
      </trkpt>
      <trkpt lat="45.35677" lon="5.89562">
        <ele>1737.4580078125</ele>
        <time>2017-12-19T12:28:08Z</time>
      </trkpt>
      <trkpt lat="45.3568" lon="5.89567">
        <ele>1742.4580078125</ele>
        <time>2017-12-19T12:28:14Z</time>
      </trkpt>
      <trkpt lat="45.35685" lon="5.89565">
        <ele>1743.4580078125</ele>
        <time>2017-12-19T12:28:23Z</time>
      </trkpt>
      <trkpt lat="45.35689" lon="5.89568">
        <ele>1746.4580078125</ele>
        <time>2017-12-19T12:28:28Z</time>
      </trkpt>
      <trkpt lat="45.35693" lon="5.89569">
        <ele>1747.4580078125</ele>
        <time>2017-12-19T12:28:33Z</time>
      </trkpt>
      <trkpt lat="45.35698" lon="5.89568">
        <ele>1746.4580078125</ele>
        <time>2017-12-19T12:28:40Z</time>
      </trkpt>
      <trkpt lat="45.35697" lon="5.89561">
        <ele>1745.4580078125</ele>
        <time>2017-12-19T12:28:44Z</time>
      </trkpt>
      <trkpt lat="45.35696" lon="5.89552">
        <ele>1746.4580078125</ele>
        <time>2017-12-19T12:28:50Z</time>
      </trkpt>
      <trkpt lat="45.35693" lon="5.89547">
        <ele>1748.4580078125</ele>
        <time>2017-12-19T12:28:54Z</time>
      </trkpt>
      <trkpt lat="45.35691" lon="5.89541">
        <ele>1753.4580078125</ele>
        <time>2017-12-19T12:28:58Z</time>
      </trkpt>
      <trkpt lat="45.35686" lon="5.89537">
        <ele>1755.4580078125</ele>
        <time>2017-12-19T12:29:05Z</time>
      </trkpt>
      <trkpt lat="45.35682" lon="5.89534">
        <ele>1757.4580078125</ele>
        <time>2017-12-19T12:29:10Z</time>
      </trkpt>
      <trkpt lat="45.35687" lon="5.89534">
        <ele>1757.4580078125</ele>
        <time>2017-12-19T12:29:16Z</time>
      </trkpt>
      <trkpt lat="45.35691" lon="5.89538">
        <ele>1759.4580078125</ele>
        <time>2017-12-19T12:29:21Z</time>
      </trkpt>
      <trkpt lat="45.35694" lon="5.89545">
        <ele>1763.4580078125</ele>
        <time>2017-12-19T12:29:26Z</time>
      </trkpt>
      <trkpt lat="45.35696" lon="5.8955">
        <ele>1768.4580078125</ele>
        <time>2017-12-19T12:29:32Z</time>
      </trkpt>
      <trkpt lat="45.35699" lon="5.89557">
        <ele>1769.4580078125</ele>
        <time>2017-12-19T12:29:38Z</time>
      </trkpt>
      <trkpt lat="45.35702" lon="5.89562">
        <ele>1771.4580078125</ele>
        <time>2017-12-19T12:29:45Z</time>
      </trkpt>
      <trkpt lat="45.35705" lon="5.89567">
        <ele>1774.4580078125</ele>
        <time>2017-12-19T12:29:51Z</time>
      </trkpt>
      <trkpt lat="45.35705" lon="5.89558">
        <ele>1772.4580078125</ele>
        <time>2017-12-19T12:30:00Z</time>
      </trkpt>
      <trkpt lat="45.35704" lon="5.89552">
        <ele>1774.4580078125</ele>
        <time>2017-12-19T12:30:04Z</time>
      </trkpt>
      <trkpt lat="45.35703" lon="5.89545">
        <ele>1777.4580078125</ele>
        <time>2017-12-19T12:30:10Z</time>
      </trkpt>
      <trkpt lat="45.35707" lon="5.89546">
        <ele>1780.4580078125</ele>
        <time>2017-12-19T12:30:22Z</time>
      </trkpt>
      <trkpt lat="45.35711" lon="5.89553">
        <ele>1781.4580078125</ele>
        <time>2017-12-19T12:30:27Z</time>
      </trkpt>
      <trkpt lat="45.35714" lon="5.89557">
        <ele>1782.4580078125</ele>
        <time>2017-12-19T12:30:31Z</time>
      </trkpt>
      <trkpt lat="45.35717" lon="5.89563">
        <ele>1783.4580078125</ele>
        <time>2017-12-19T12:30:35Z</time>
      </trkpt>
      <trkpt lat="45.3572" lon="5.89568">
        <ele>1786.4580078125</ele>
        <time>2017-12-19T12:30:40Z</time>
      </trkpt>
      <trkpt lat="45.35724" lon="5.89573">
        <ele>1786.4580078125</ele>
        <time>2017-12-19T12:30:45Z</time>
      </trkpt>
      <trkpt lat="45.35726" lon="5.89579">
        <ele>1788.4580078125</ele>
        <time>2017-12-19T12:30:49Z</time>
      </trkpt>
      <trkpt lat="45.35729" lon="5.89585">
        <ele>1789.4580078125</ele>
        <time>2017-12-19T12:30:55Z</time>
      </trkpt>
      <trkpt lat="45.35735" lon="5.89586">
        <ele>1790.4580078125</ele>
        <time>2017-12-19T12:30:59Z</time>
      </trkpt>
      <trkpt lat="45.35736" lon="5.89594">
        <ele>1792.4580078125</ele>
        <time>2017-12-19T12:31:04Z</time>
      </trkpt>
      <trkpt lat="45.35739" lon="5.89601">
        <ele>1792.4580078125</ele>
        <time>2017-12-19T12:31:09Z</time>
      </trkpt>
      <trkpt lat="45.35743" lon="5.89605">
        <ele>1793.4580078125</ele>
        <time>2017-12-19T12:31:13Z</time>
      </trkpt>
      <trkpt lat="45.35743" lon="5.89613">
        <ele>1794.4580078125</ele>
        <time>2017-12-19T12:31:19Z</time>
      </trkpt>
      <trkpt lat="45.35748" lon="5.89613">
        <ele>1794.4580078125</ele>
        <time>2017-12-19T12:31:21Z</time>
      </trkpt>
      <trkpt lat="45.35751" lon="5.89619">
        <ele>1795.4580078125</ele>
        <time>2017-12-19T12:31:26Z</time>
      </trkpt>
      <trkpt lat="45.35747" lon="5.89626">
        <ele>1798.4580078125</ele>
        <time>2017-12-19T12:31:28Z</time>
      </trkpt>
      <trkpt lat="45.35745" lon="5.89632">
        <ele>1799.4580078125</ele>
        <time>2017-12-19T12:31:33Z</time>
      </trkpt>
      <trkpt lat="45.35745" lon="5.89639">
        <ele>1799.4580078125</ele>
        <time>2017-12-19T12:31:36Z</time>
      </trkpt>
      <trkpt lat="45.35747" lon="5.89645">
        <ele>1799.4580078125</ele>
        <time>2017-12-19T12:31:39Z</time>
      </trkpt>
      <trkpt lat="45.35746" lon="5.89653">
        <ele>1801.4580078125</ele>
        <time>2017-12-19T12:31:43Z</time>
      </trkpt>
      <trkpt lat="45.35747" lon="5.8966">
        <ele>1801.4580078125</ele>
        <time>2017-12-19T12:31:46Z</time>
      </trkpt>
      <trkpt lat="45.35746" lon="5.89667">
        <ele>1803.4580078125</ele>
        <time>2017-12-19T12:31:50Z</time>
      </trkpt>
      <trkpt lat="45.35747" lon="5.89675">
        <ele>1803.4580078125</ele>
        <time>2017-12-19T12:31:55Z</time>
      </trkpt>
      <trkpt lat="45.35748" lon="5.89681">
        <ele>1806.4580078125</ele>
        <time>2017-12-19T12:31:59Z</time>
      </trkpt>
      <trkpt lat="45.35748" lon="5.89689">
        <ele>1808.4580078125</ele>
        <time>2017-12-19T12:32:04Z</time>
      </trkpt>
      <trkpt lat="45.3575" lon="5.89695">
        <ele>1807.4580078125</ele>
        <time>2017-12-19T12:32:08Z</time>
      </trkpt>
      <trkpt lat="45.35748" lon="5.89703">
        <ele>1807.4580078125</ele>
        <time>2017-12-19T12:32:12Z</time>
      </trkpt>
      <trkpt lat="45.35746" lon="5.8971">
        <ele>1806.4580078125</ele>
        <time>2017-12-19T12:32:16Z</time>
      </trkpt>
      <trkpt lat="45.35744" lon="5.89717">
        <ele>1807.4580078125</ele>
        <time>2017-12-19T12:32:18Z</time>
      </trkpt>
      <trkpt lat="45.35744" lon="5.89724">
        <ele>1809.4580078125</ele>
        <time>2017-12-19T12:32:23Z</time>
      </trkpt>
      <trkpt lat="45.35742" lon="5.89732">
        <ele>1808.4580078125</ele>
        <time>2017-12-19T12:32:28Z</time>
      </trkpt>
      <trkpt lat="45.3574" lon="5.89739">
        <ele>1808.4580078125</ele>
        <time>2017-12-19T12:32:32Z</time>
      </trkpt>
      <trkpt lat="45.3574" lon="5.89746">
        <ele>1809.4580078125</ele>
        <time>2017-12-19T12:32:36Z</time>
      </trkpt>
      <trkpt lat="45.3574" lon="5.89753">
        <ele>1810.4580078125</ele>
        <time>2017-12-19T12:32:40Z</time>
      </trkpt>
      <trkpt lat="45.35741" lon="5.89762">
        <ele>1811.4580078125</ele>
        <time>2017-12-19T12:32:45Z</time>
      </trkpt>
      <trkpt lat="45.35742" lon="5.8977">
        <ele>1812.4580078125</ele>
        <time>2017-12-19T12:32:49Z</time>
      </trkpt>
      <trkpt lat="45.35745" lon="5.89775">
        <ele>1814.4580078125</ele>
        <time>2017-12-19T12:32:54Z</time>
      </trkpt>
      <trkpt lat="45.35751" lon="5.89781">
        <ele>1813.4580078125</ele>
        <time>2017-12-19T12:32:59Z</time>
      </trkpt>
      <trkpt lat="45.35756" lon="5.89785">
        <ele>1814.4580078125</ele>
        <time>2017-12-19T12:33:05Z</time>
      </trkpt>
      <trkpt lat="45.3576" lon="5.89788">
        <ele>1814.4580078125</ele>
        <time>2017-12-19T12:33:10Z</time>
      </trkpt>
      <trkpt lat="45.35763" lon="5.89794">
        <ele>1816.4580078125</ele>
        <time>2017-12-19T12:33:15Z</time>
      </trkpt>
      <trkpt lat="45.35768" lon="5.89796">
        <ele>1815.4580078125</ele>
        <time>2017-12-19T12:33:19Z</time>
      </trkpt>
      <trkpt lat="45.35774" lon="5.89798">
        <ele>1779.4580078125</ele>
        <time>2017-12-19T12:33:23Z</time>
      </trkpt>
      <trkpt lat="45.35779" lon="5.898">
        <ele>1814.4580078125</ele>
        <time>2017-12-19T12:33:26Z</time>
      </trkpt>
      <trkpt lat="45.35783" lon="5.89798">
        <ele>1813.4580078125</ele>
        <time>2017-12-19T12:33:28Z</time>
      </trkpt>
      <trkpt lat="45.35792" lon="5.89785">
        <ele>1812.4580078125</ele>
        <time>2017-12-19T12:33:32Z</time>
      </trkpt>
      <trkpt lat="45.35794" lon="5.89779">
        <ele>1811.4580078125</ele>
        <time>2017-12-19T12:33:34Z</time>
      </trkpt>
      <trkpt lat="45.35801" lon="5.8977">
        <ele>1809.4580078125</ele>
        <time>2017-12-19T12:33:37Z</time>
      </trkpt>
      <trkpt lat="45.35808" lon="5.89757">
        <ele>1808.4580078125</ele>
        <time>2017-12-19T12:33:39Z</time>
      </trkpt>
      <trkpt lat="45.35809" lon="5.89748">
        <ele>1808.4580078125</ele>
        <time>2017-12-19T12:33:42Z</time>
      </trkpt>
      <trkpt lat="45.35813" lon="5.89746">
        <ele>1809.4580078125</ele>
        <time>2017-12-19T12:33:45Z</time>
      </trkpt>
      <trkpt lat="45.35817" lon="5.89744">
        <ele>1810.4580078125</ele>
        <time>2017-12-19T12:33:47Z</time>
      </trkpt>
      <trkpt lat="45.35822" lon="5.89743">
        <ele>1810.4580078125</ele>
        <time>2017-12-19T12:33:52Z</time>
      </trkpt>
      <trkpt lat="45.35821" lon="5.89737">
        <ele>1813.4580078125</ele>
        <time>2017-12-19T12:34:10Z</time>
      </trkpt>
      <trkpt lat="45.35819" lon="5.8973">
        <ele>1814.4580078125</ele>
        <time>2017-12-19T12:34:18Z</time>
      </trkpt>
      <trkpt lat="45.35814" lon="5.8973">
        <ele>1818.4580078125</ele>
        <time>2017-12-19T12:34:25Z</time>
      </trkpt>
      <trkpt lat="45.35809" lon="5.89737">
        <ele>1818.4580078125</ele>
        <time>2017-12-19T12:34:32Z</time>
      </trkpt>
      <trkpt lat="45.35806" lon="5.89731">
        <ele>1820.4580078125</ele>
        <time>2017-12-19T12:34:46Z</time>
      </trkpt>
      <trkpt lat="45.35806" lon="5.89725">
        <ele>1825.4580078125</ele>
        <time>2017-12-19T12:35:01Z</time>
      </trkpt>
      <trkpt lat="45.35809" lon="5.8972">
        <ele>1827.4580078125</ele>
        <time>2017-12-19T12:35:04Z</time>
      </trkpt>
      <trkpt lat="45.3581" lon="5.89713">
        <ele>1828.4580078125</ele>
        <time>2017-12-19T12:35:10Z</time>
      </trkpt>
      <trkpt lat="45.35811" lon="5.89706">
        <ele>1830.4580078125</ele>
        <time>2017-12-19T12:35:16Z</time>
      </trkpt>
      <trkpt lat="45.35808" lon="5.89701">
        <ele>1830.4580078125</ele>
        <time>2017-12-19T12:35:22Z</time>
      </trkpt>
      <trkpt lat="45.35813" lon="5.89698">
        <ele>1831.4580078125</ele>
        <time>2017-12-19T12:35:24Z</time>
      </trkpt>
      <trkpt lat="45.35817" lon="5.89703">
        <ele>1837.4580078125</ele>
        <time>2017-12-19T12:35:41Z</time>
      </trkpt>
      <trkpt lat="45.3582" lon="5.89709">
        <ele>1839.4580078125</ele>
        <time>2017-12-19T12:35:46Z</time>
      </trkpt>
      <trkpt lat="45.35824" lon="5.89713">
        <ele>1839.4580078125</ele>
        <time>2017-12-19T12:35:50Z</time>
      </trkpt>
      <trkpt lat="45.35829" lon="5.89715">
        <ele>1839.4580078125</ele>
        <time>2017-12-19T12:35:54Z</time>
      </trkpt>
      <trkpt lat="45.35831" lon="5.89721">
        <ele>1839.4580078125</ele>
        <time>2017-12-19T12:35:58Z</time>
      </trkpt>
      <trkpt lat="45.35835" lon="5.89726">
        <ele>1840.4580078125</ele>
        <time>2017-12-19T12:36:02Z</time>
      </trkpt>
      <trkpt lat="45.35838" lon="5.89736">
        <ele>1842.4580078125</ele>
        <time>2017-12-19T12:36:16Z</time>
      </trkpt>
      <trkpt lat="45.35841" lon="5.8973">
        <ele>1843.4580078125</ele>
        <time>2017-12-19T12:37:02Z</time>
      </trkpt>
      <trkpt lat="45.35844" lon="5.89722">
        <ele>1840.4580078125</ele>
        <time>2017-12-19T12:40:24Z</time>
      </trkpt>
      <trkpt lat="45.35843" lon="5.89713">
        <ele>1838.4580078125</ele>
        <time>2017-12-19T12:40:26Z</time>
      </trkpt>
      <trkpt lat="45.35836" lon="5.89704">
        <ele>1838.4580078125</ele>
        <time>2017-12-19T12:40:28Z</time>
      </trkpt>
      <trkpt lat="45.35825" lon="5.89695">
        <ele>1836.4580078125</ele>
        <time>2017-12-19T12:40:31Z</time>
      </trkpt>
      <trkpt lat="45.35819" lon="5.89694">
        <ele>1837.4580078125</ele>
        <time>2017-12-19T12:40:33Z</time>
      </trkpt>
      <trkpt lat="45.35814" lon="5.89693">
        <ele>1835.4580078125</ele>
        <time>2017-12-19T12:40:42Z</time>
      </trkpt>
      <trkpt lat="45.35813" lon="5.89701">
        <ele>1834.4580078125</ele>
        <time>2017-12-19T12:40:44Z</time>
      </trkpt>
      <trkpt lat="45.35807" lon="5.89709">
        <ele>1833.4580078125</ele>
        <time>2017-12-19T12:40:47Z</time>
      </trkpt>
      <trkpt lat="45.35811" lon="5.89713">
        <ele>1832.4580078125</ele>
        <time>2017-12-19T12:40:50Z</time>
      </trkpt>
      <trkpt lat="45.3581" lon="5.89721">
        <ele>1831.4580078125</ele>
        <time>2017-12-19T12:41:00Z</time>
      </trkpt>
      <trkpt lat="45.35811" lon="5.89727">
        <ele>1828.4580078125</ele>
        <time>2017-12-19T12:41:08Z</time>
      </trkpt>
      <trkpt lat="45.35816" lon="5.89736">
        <ele>1823.4580078125</ele>
        <time>2017-12-19T12:41:12Z</time>
      </trkpt>
      <trkpt lat="45.35818" lon="5.89742">
        <ele>1819.4580078125</ele>
        <time>2017-12-19T12:41:26Z</time>
      </trkpt>
      <trkpt lat="45.35815" lon="5.89749">
        <ele>1810.4580078125</ele>
        <time>2017-12-19T12:43:07Z</time>
      </trkpt>
      <trkpt lat="45.35814" lon="5.89761">
        <ele>1809.4580078125</ele>
        <time>2017-12-19T12:43:09Z</time>
      </trkpt>
      <trkpt lat="45.35816" lon="5.89773">
        <ele>1807.4580078125</ele>
        <time>2017-12-19T12:43:11Z</time>
      </trkpt>
      <trkpt lat="45.35821" lon="5.89771">
        <ele>1806.4580078125</ele>
        <time>2017-12-19T12:43:17Z</time>
      </trkpt>
      <trkpt lat="45.35825" lon="5.89775">
        <ele>1804.4580078125</ele>
        <time>2017-12-19T12:43:23Z</time>
      </trkpt>
      <trkpt lat="45.3583" lon="5.89779">
        <ele>1803.4580078125</ele>
        <time>2017-12-19T12:43:25Z</time>
      </trkpt>
      <trkpt lat="45.35837" lon="5.89785">
        <ele>1801.4580078125</ele>
        <time>2017-12-19T12:43:27Z</time>
      </trkpt>
      <trkpt lat="45.35837" lon="5.89792">
        <ele>1799.4580078125</ele>
        <time>2017-12-19T12:43:30Z</time>
      </trkpt>
      <trkpt lat="45.35834" lon="5.89798">
        <ele>1798.4580078125</ele>
        <time>2017-12-19T12:43:32Z</time>
      </trkpt>
      <trkpt lat="45.35832" lon="5.89805">
        <ele>1798.4580078125</ele>
        <time>2017-12-19T12:43:35Z</time>
      </trkpt>
      <trkpt lat="45.35829" lon="5.89819">
        <ele>1794.4580078125</ele>
        <time>2017-12-19T12:43:38Z</time>
      </trkpt>
      <trkpt lat="45.3583" lon="5.89829">
        <ele>1789.4580078125</ele>
        <time>2017-12-19T12:43:44Z</time>
      </trkpt>
      <trkpt lat="45.35824" lon="5.89837">
        <ele>1784.4580078125</ele>
        <time>2017-12-19T12:43:47Z</time>
      </trkpt>
      <trkpt lat="45.35816" lon="5.8985">
        <ele>1779.4580078125</ele>
        <time>2017-12-19T12:43:50Z</time>
      </trkpt>
      <trkpt lat="45.35813" lon="5.89857">
        <ele>1778.4580078125</ele>
        <time>2017-12-19T12:43:51Z</time>
      </trkpt>
      <trkpt lat="45.35806" lon="5.89876">
        <ele>1774.4580078125</ele>
        <time>2017-12-19T12:43:55Z</time>
      </trkpt>
      <trkpt lat="45.35804" lon="5.89882">
        <ele>1773.4580078125</ele>
        <time>2017-12-19T12:44:04Z</time>
      </trkpt>
      <trkpt lat="45.35806" lon="5.89889">
        <ele>1767.4580078125</ele>
        <time>2017-12-19T12:44:25Z</time>
      </trkpt>
      <trkpt lat="45.35816" lon="5.89894">
        <ele>1762.4580078125</ele>
        <time>2017-12-19T12:44:27Z</time>
      </trkpt>
      <trkpt lat="45.3582" lon="5.899">
        <ele>1758.4580078125</ele>
        <time>2017-12-19T12:44:28Z</time>
      </trkpt>
      <trkpt lat="45.35828" lon="5.89894">
        <ele>1754.4580078125</ele>
        <time>2017-12-19T12:44:29Z</time>
      </trkpt>
      <trkpt lat="45.35841" lon="5.89887">
        <ele>1749.4580078125</ele>
        <time>2017-12-19T12:44:31Z</time>
      </trkpt>
      <trkpt lat="45.35846" lon="5.8988">
        <ele>1738.4580078125</ele>
        <time>2017-12-19T12:44:36Z</time>
      </trkpt>
      <trkpt lat="45.35841" lon="5.89878">
        <ele>1729.4580078125</ele>
        <time>2017-12-19T12:45:25Z</time>
      </trkpt>
      <trkpt lat="45.35844" lon="5.89872">
        <ele>1730.4580078125</ele>
        <time>2017-12-19T12:46:09Z</time>
      </trkpt>
      <trkpt lat="45.35842" lon="5.89879">
        <ele>1730.4580078125</ele>
        <time>2017-12-19T12:46:43Z</time>
      </trkpt>
      <trkpt lat="45.35838" lon="5.89884">
        <ele>1727.4580078125</ele>
        <time>2017-12-19T12:46:48Z</time>
      </trkpt>
      <trkpt lat="45.35831" lon="5.89902">
        <ele>1725.4580078125</ele>
        <time>2017-12-19T12:46:50Z</time>
      </trkpt>
      <trkpt lat="45.35826" lon="5.89911">
        <ele>1722.4580078125</ele>
        <time>2017-12-19T12:46:52Z</time>
      </trkpt>
      <trkpt lat="45.35823" lon="5.89916">
        <ele>1722.4580078125</ele>
        <time>2017-12-19T12:46:54Z</time>
      </trkpt>
      <trkpt lat="45.35821" lon="5.89922">
        <ele>1724.4580078125</ele>
        <time>2017-12-19T12:47:15Z</time>
      </trkpt>
      <trkpt lat="45.35823" lon="5.8993">
        <ele>1719.4580078125</ele>
        <time>2017-12-19T12:47:21Z</time>
      </trkpt>
      <trkpt lat="45.35827" lon="5.8993">
        <ele>1708.4580078125</ele>
        <time>2017-12-19T12:47:35Z</time>
      </trkpt>
      <trkpt lat="45.35838" lon="5.89932">
        <ele>1707.4580078125</ele>
        <time>2017-12-19T12:47:37Z</time>
      </trkpt>
      <trkpt lat="45.35845" lon="5.89939">
        <ele>1702.4580078125</ele>
        <time>2017-12-19T12:47:40Z</time>
      </trkpt>
      <trkpt lat="45.35847" lon="5.89947">
        <ele>1702.4580078125</ele>
        <time>2017-12-19T12:47:42Z</time>
      </trkpt>
      <trkpt lat="45.35849" lon="5.89953">
        <ele>1700.4580078125</ele>
        <time>2017-12-19T12:47:44Z</time>
      </trkpt>
      <trkpt lat="45.35848" lon="5.89972">
        <ele>1699.4580078125</ele>
        <time>2017-12-19T12:47:47Z</time>
      </trkpt>
      <trkpt lat="45.35844" lon="5.89985">
        <ele>1696.4580078125</ele>
        <time>2017-12-19T12:47:49Z</time>
      </trkpt>
      <trkpt lat="45.3584" lon="5.89987">
        <ele>1731.4580078125</ele>
        <time>2017-12-19T12:47:56Z</time>
      </trkpt>
      <trkpt lat="45.35837" lon="5.89994">
        <ele>1711.4580078125</ele>
        <time>2017-12-19T12:47:59Z</time>
      </trkpt>
      <trkpt lat="45.35831" lon="5.89987">
        <ele>1696.4580078125</ele>
        <time>2017-12-19T12:48:02Z</time>
      </trkpt>
      <trkpt lat="45.3583" lon="5.89981">
        <ele>1685.4580078125</ele>
        <time>2017-12-19T12:48:04Z</time>
      </trkpt>
      <trkpt lat="45.35829" lon="5.89988">
        <ele>1681.4580078125</ele>
        <time>2017-12-19T12:48:10Z</time>
      </trkpt>
      <trkpt lat="45.35826" lon="5.89992">
        <ele>1675.4580078125</ele>
        <time>2017-12-19T12:48:49Z</time>
      </trkpt>
      <trkpt lat="45.35817" lon="5.89988">
        <ele>1671.4580078125</ele>
        <time>2017-12-19T12:48:57Z</time>
      </trkpt>
      <trkpt lat="45.35813" lon="5.89997">
        <ele>1670.4580078125</ele>
        <time>2017-12-19T12:48:59Z</time>
      </trkpt>
      <trkpt lat="45.35813" lon="5.90009">
        <ele>1667.4580078125</ele>
        <time>2017-12-19T12:49:04Z</time>
      </trkpt>
      <trkpt lat="45.35812" lon="5.90016">
        <ele>1664.4580078125</ele>
        <time>2017-12-19T12:49:06Z</time>
      </trkpt>
      <trkpt lat="45.35808" lon="5.90023">
        <ele>1651.4580078125</ele>
        <time>2017-12-19T12:49:11Z</time>
      </trkpt>
      <trkpt lat="45.35807" lon="5.90035">
        <ele>1644.4580078125</ele>
        <time>2017-12-19T12:49:14Z</time>
      </trkpt>
      <trkpt lat="45.35811" lon="5.90031">
        <ele>1642.4580078125</ele>
        <time>2017-12-19T12:49:21Z</time>
      </trkpt>
      <trkpt lat="45.35808" lon="5.90038">
        <ele>1635.4580078125</ele>
        <time>2017-12-19T12:49:38Z</time>
      </trkpt>
      <trkpt lat="45.35815" lon="5.90048">
        <ele>1632.4580078125</ele>
        <time>2017-12-19T12:49:40Z</time>
      </trkpt>
      <trkpt lat="45.35823" lon="5.9006">
        <ele>1630.458984375</ele>
        <time>2017-12-19T12:49:43Z</time>
      </trkpt>
      <trkpt lat="45.35829" lon="5.90065">
        <ele>1628.458984375</ele>
        <time>2017-12-19T12:49:45Z</time>
      </trkpt>
      <trkpt lat="45.35831" lon="5.90071">
        <ele>1626.458984375</ele>
        <time>2017-12-19T12:49:52Z</time>
      </trkpt>
      <trkpt lat="45.35827" lon="5.90078">
        <ele>1617.458984375</ele>
        <time>2017-12-19T12:50:43Z</time>
      </trkpt>
      <trkpt lat="45.35828" lon="5.90085">
        <ele>1613.458984375</ele>
        <time>2017-12-19T12:50:51Z</time>
      </trkpt>
      <trkpt lat="45.35829" lon="5.90092">
        <ele>1612.458984375</ele>
        <time>2017-12-19T12:50:53Z</time>
      </trkpt>
      <trkpt lat="45.35829" lon="5.90103">
        <ele>1605.458984375</ele>
        <time>2017-12-19T12:51:03Z</time>
      </trkpt>
      <trkpt lat="45.3583" lon="5.90109">
        <ele>1603.458984375</ele>
        <time>2017-12-19T12:51:05Z</time>
      </trkpt>
      <trkpt lat="45.35834" lon="5.90115">
        <ele>1600.458984375</ele>
        <time>2017-12-19T12:51:07Z</time>
      </trkpt>
      <trkpt lat="45.35833" lon="5.90124">
        <ele>1597.458984375</ele>
        <time>2017-12-19T12:51:09Z</time>
      </trkpt>
      <trkpt lat="45.35835" lon="5.90141">
        <ele>1593.458984375</ele>
        <time>2017-12-19T12:51:13Z</time>
      </trkpt>
      <trkpt lat="45.35837" lon="5.90148">
        <ele>1589.458984375</ele>
        <time>2017-12-19T12:51:18Z</time>
      </trkpt>
      <trkpt lat="45.35842" lon="5.90153">
        <ele>1585.458984375</ele>
        <time>2017-12-19T12:51:20Z</time>
      </trkpt>
      <trkpt lat="45.35846" lon="5.90158">
        <ele>1580.458984375</ele>
        <time>2017-12-19T12:52:23Z</time>
      </trkpt>
      <trkpt lat="45.35846" lon="5.90166">
        <ele>1579.458984375</ele>
        <time>2017-12-19T12:52:25Z</time>
      </trkpt>
      <trkpt lat="45.35841" lon="5.90171">
        <ele>1576.458984375</ele>
        <time>2017-12-19T12:52:27Z</time>
      </trkpt>
      <trkpt lat="45.35837" lon="5.90179">
        <ele>1571.458984375</ele>
        <time>2017-12-19T12:52:30Z</time>
      </trkpt>
      <trkpt lat="45.3584" lon="5.90189">
        <ele>1566.458984375</ele>
        <time>2017-12-19T12:52:32Z</time>
      </trkpt>
      <trkpt lat="45.3584" lon="5.90208">
        <ele>1563.458984375</ele>
        <time>2017-12-19T12:52:36Z</time>
      </trkpt>
      <trkpt lat="45.35845" lon="5.90209">
        <ele>1557.458984375</ele>
        <time>2017-12-19T12:52:42Z</time>
      </trkpt>
      <trkpt lat="45.35849" lon="5.90216">
        <ele>1553.458984375</ele>
        <time>2017-12-19T12:52:45Z</time>
      </trkpt>
      <trkpt lat="45.35856" lon="5.90223">
        <ele>1551.458984375</ele>
        <time>2017-12-19T12:52:47Z</time>
      </trkpt>
      <trkpt lat="45.35843" lon="5.90248">
        <ele>1549.458984375</ele>
        <time>2017-12-19T12:52:49Z</time>
      </trkpt>
      <trkpt lat="45.35842" lon="5.90269">
        <ele>1546.458984375</ele>
        <time>2017-12-19T12:52:52Z</time>
      </trkpt>
      <trkpt lat="45.3584" lon="5.90287">
        <ele>1542.458984375</ele>
        <time>2017-12-19T12:52:54Z</time>
      </trkpt>
      <trkpt lat="45.35837" lon="5.90304">
        <ele>1538.458984375</ele>
        <time>2017-12-19T12:52:56Z</time>
      </trkpt>
      <trkpt lat="45.3584" lon="5.90321">
        <ele>1534.458984375</ele>
        <time>2017-12-19T12:52:59Z</time>
      </trkpt>
      <trkpt lat="45.35837" lon="5.90333">
        <ele>1531.458984375</ele>
        <time>2017-12-19T12:53:02Z</time>
      </trkpt>
      <trkpt lat="45.35833" lon="5.90328">
        <ele>1525.458984375</ele>
        <time>2017-12-19T12:53:09Z</time>
      </trkpt>
      <trkpt lat="45.35831" lon="5.90335">
        <ele>1520.458984375</ele>
        <time>2017-12-19T12:56:48Z</time>
      </trkpt>
      <trkpt lat="45.35834" lon="5.90342">
        <ele>1515.458984375</ele>
        <time>2017-12-19T12:56:55Z</time>
      </trkpt>
      <trkpt lat="45.35835" lon="5.90349">
        <ele>1512.458984375</ele>
        <time>2017-12-19T12:56:57Z</time>
      </trkpt>
      <trkpt lat="45.35833" lon="5.90355">
        <ele>1502.458984375</ele>
        <time>2017-12-19T12:57:05Z</time>
      </trkpt>
      <trkpt lat="45.35827" lon="5.90364">
        <ele>1497.458984375</ele>
        <time>2017-12-19T12:57:07Z</time>
      </trkpt>
      <trkpt lat="45.35825" lon="5.90371">
        <ele>1496.458984375</ele>
        <time>2017-12-19T12:57:09Z</time>
      </trkpt>
      <trkpt lat="45.3582" lon="5.90375">
        <ele>1492.458984375</ele>
        <time>2017-12-19T12:57:12Z</time>
      </trkpt>
      <trkpt lat="45.35818" lon="5.90382">
        <ele>1489.458984375</ele>
        <time>2017-12-19T12:57:20Z</time>
      </trkpt>
      <trkpt lat="45.35813" lon="5.90381">
        <ele>1487.458984375</ele>
        <time>2017-12-19T12:57:23Z</time>
      </trkpt>
      <trkpt lat="45.35807" lon="5.90387">
        <ele>1481.458984375</ele>
        <time>2017-12-19T12:58:05Z</time>
      </trkpt>
      <trkpt lat="45.35808" lon="5.90381">
        <ele>1479.458984375</ele>
        <time>2017-12-19T12:58:08Z</time>
      </trkpt>
      <trkpt lat="45.35802" lon="5.90383">
        <ele>1474.458984375</ele>
        <time>2017-12-19T12:58:17Z</time>
      </trkpt>
      <trkpt lat="45.3579" lon="5.90397">
        <ele>1472.458984375</ele>
        <time>2017-12-19T12:58:19Z</time>
      </trkpt>
      <trkpt lat="45.35777" lon="5.90409">
        <ele>1471.458984375</ele>
        <time>2017-12-19T12:58:21Z</time>
      </trkpt>
      <trkpt lat="45.35773" lon="5.90411">
        <ele>1471.458984375</ele>
        <time>2017-12-19T12:58:22Z</time>
      </trkpt>
      <trkpt lat="45.35769" lon="5.90415">
        <ele>1422.458984375</ele>
        <time>2017-12-19T12:58:26Z</time>
      </trkpt>
      <trkpt lat="45.35762" lon="5.90417">
        <ele>1427.458984375</ele>
        <time>2017-12-19T12:58:27Z</time>
      </trkpt>
      <trkpt lat="45.35756" lon="5.90428">
        <ele>1433.458984375</ele>
        <time>2017-12-19T12:58:29Z</time>
      </trkpt>
      <trkpt lat="45.35754" lon="5.90436">
        <ele>1436.458984375</ele>
        <time>2017-12-19T12:58:31Z</time>
      </trkpt>
      <trkpt lat="45.35749" lon="5.90448">
        <ele>1440.458984375</ele>
        <time>2017-12-19T12:58:33Z</time>
      </trkpt>
      <trkpt lat="45.3575" lon="5.90455">
        <ele>1442.458984375</ele>
        <time>2017-12-19T12:58:36Z</time>
      </trkpt>
      <trkpt lat="45.35755" lon="5.90455">
        <ele>1443.458984375</ele>
        <time>2017-12-19T12:58:48Z</time>
      </trkpt>
      <trkpt lat="45.35751" lon="5.90461">
        <ele>1438.458984375</ele>
        <time>2017-12-19T12:59:36Z</time>
      </trkpt>
      <trkpt lat="45.35752" lon="5.90467">
        <ele>1431.458984375</ele>
        <time>2017-12-19T12:59:39Z</time>
      </trkpt>
      <trkpt lat="45.35748" lon="5.90473">
        <ele>1429.458984375</ele>
        <time>2017-12-19T12:59:41Z</time>
      </trkpt>
      <trkpt lat="45.35744" lon="5.9049">
        <ele>1429.458984375</ele>
        <time>2017-12-19T12:59:43Z</time>
      </trkpt>
      <trkpt lat="45.35738" lon="5.90499">
        <ele>1425.458984375</ele>
        <time>2017-12-19T12:59:45Z</time>
      </trkpt>
      <trkpt lat="45.35733" lon="5.90497">
        <ele>1423.458984375</ele>
        <time>2017-12-19T12:59:47Z</time>
      </trkpt>
      <trkpt lat="45.3573" lon="5.90503">
        <ele>1418.458984375</ele>
        <time>2017-12-19T12:59:52Z</time>
      </trkpt>
      <trkpt lat="45.35726" lon="5.90513">
        <ele>1417.458984375</ele>
        <time>2017-12-19T12:59:54Z</time>
      </trkpt>
      <trkpt lat="45.35726" lon="5.90521">
        <ele>1415.458984375</ele>
        <time>2017-12-19T12:59:56Z</time>
      </trkpt>
      <trkpt lat="45.35724" lon="5.90527">
        <ele>1413.458984375</ele>
        <time>2017-12-19T12:59:57Z</time>
      </trkpt>
      <trkpt lat="45.3572" lon="5.90538">
        <ele>1412.458984375</ele>
        <time>2017-12-19T13:00:00Z</time>
      </trkpt>
      <trkpt lat="45.35718" lon="5.90552">
        <ele>1411.458984375</ele>
        <time>2017-12-19T13:00:02Z</time>
      </trkpt>
      <trkpt lat="45.35723" lon="5.90551">
        <ele>1400.458984375</ele>
        <time>2017-12-19T13:00:27Z</time>
      </trkpt>
      <trkpt lat="45.35728" lon="5.90549">
        <ele>1398.458984375</ele>
        <time>2017-12-19T13:00:36Z</time>
      </trkpt>
      <trkpt lat="45.35731" lon="5.90555">
        <ele>1396.458984375</ele>
        <time>2017-12-19T13:01:38Z</time>
      </trkpt>
      <trkpt lat="45.35726" lon="5.9056">
        <ele>1393.458984375</ele>
        <time>2017-12-19T13:01:45Z</time>
      </trkpt>
      <trkpt lat="45.35721" lon="5.90563">
        <ele>1391.458984375</ele>
        <time>2017-12-19T13:01:48Z</time>
      </trkpt>
      <trkpt lat="45.35708" lon="5.90573">
        <ele>1388.458984375</ele>
        <time>2017-12-19T13:01:51Z</time>
      </trkpt>
      <trkpt lat="45.35702" lon="5.90577">
        <ele>1384.458984375</ele>
        <time>2017-12-19T13:01:53Z</time>
      </trkpt>
      <trkpt lat="45.35697" lon="5.90587">
        <ele>1380.458984375</ele>
        <time>2017-12-19T13:01:56Z</time>
      </trkpt>
      <trkpt lat="45.35701" lon="5.90585">
        <ele>1375.458984375</ele>
        <time>2017-12-19T13:02:00Z</time>
      </trkpt>
      <trkpt lat="45.35699" lon="5.9059">
        <ele>1365.458984375</ele>
        <time>2017-12-19T13:02:56Z</time>
      </trkpt>
      <trkpt lat="45.35694" lon="5.90595">
        <ele>1365.458984375</ele>
        <time>2017-12-19T13:03:01Z</time>
      </trkpt>
      <trkpt lat="45.35688" lon="5.90616">
        <ele>1362.458984375</ele>
        <time>2017-12-19T13:03:05Z</time>
      </trkpt>
      <trkpt lat="45.3569" lon="5.90623">
        <ele>1360.458984375</ele>
        <time>2017-12-19T13:03:07Z</time>
      </trkpt>
      <trkpt lat="45.35693" lon="5.90635">
        <ele>1358.458984375</ele>
        <time>2017-12-19T13:03:09Z</time>
      </trkpt>
      <trkpt lat="45.35692" lon="5.90662">
        <ele>1358.458984375</ele>
        <time>2017-12-19T13:03:11Z</time>
      </trkpt>
      <trkpt lat="45.357" lon="5.90671">
        <ele>1357.458984375</ele>
        <time>2017-12-19T13:03:16Z</time>
      </trkpt>
      <trkpt lat="45.35699" lon="5.90686">
        <ele>1350.458984375</ele>
        <time>2017-12-19T13:03:20Z</time>
      </trkpt>
      <trkpt lat="45.35699" lon="5.90696">
        <ele>1346.458984375</ele>
        <time>2017-12-19T13:03:22Z</time>
      </trkpt>
      <trkpt lat="45.35698" lon="5.90704">
        <ele>1342.458984375</ele>
        <time>2017-12-19T13:03:28Z</time>
      </trkpt>
      <trkpt lat="45.35693" lon="5.90713">
        <ele>1336.458984375</ele>
        <time>2017-12-19T13:03:31Z</time>
      </trkpt>
      <trkpt lat="45.35687" lon="5.9072">
        <ele>1332.458984375</ele>
        <time>2017-12-19T13:03:34Z</time>
      </trkpt>
      <trkpt lat="45.35682" lon="5.90727">
        <ele>1332.458984375</ele>
        <time>2017-12-19T13:03:37Z</time>
      </trkpt>
      <trkpt lat="45.35677" lon="5.90734">
        <ele>1324.458984375</ele>
        <time>2017-12-19T13:04:01Z</time>
      </trkpt>
      <trkpt lat="45.35683" lon="5.90735">
        <ele>1309.458984375</ele>
        <time>2017-12-19T13:04:36Z</time>
      </trkpt>
      <trkpt lat="45.35682" lon="5.90744">
        <ele>1305.458984375</ele>
        <time>2017-12-19T13:04:45Z</time>
      </trkpt>
      <trkpt lat="45.35684" lon="5.9075">
        <ele>1304.458984375</ele>
        <time>2017-12-19T13:04:48Z</time>
      </trkpt>
      <trkpt lat="45.35687" lon="5.90756">
        <ele>1304.458984375</ele>
        <time>2017-12-19T13:04:52Z</time>
      </trkpt>
      <trkpt lat="45.35691" lon="5.90762">
        <ele>1303.458984375</ele>
        <time>2017-12-19T13:04:56Z</time>
      </trkpt>
      <trkpt lat="45.35694" lon="5.9077">
        <ele>1301.458984375</ele>
        <time>2017-12-19T13:04:59Z</time>
      </trkpt>
      <trkpt lat="45.35699" lon="5.90773">
        <ele>1301.458984375</ele>
        <time>2017-12-19T13:05:01Z</time>
      </trkpt>
      <trkpt lat="45.35702" lon="5.9078">
        <ele>1300.458984375</ele>
        <time>2017-12-19T13:05:03Z</time>
      </trkpt>
      <trkpt lat="45.35706" lon="5.90787">
        <ele>1300.458984375</ele>
        <time>2017-12-19T13:05:05Z</time>
      </trkpt>
      <trkpt lat="45.3571" lon="5.90792">
        <ele>1300.458984375</ele>
        <time>2017-12-19T13:05:07Z</time>
      </trkpt>
      <trkpt lat="45.35714" lon="5.90798">
        <ele>1299.458984375</ele>
        <time>2017-12-19T13:05:10Z</time>
      </trkpt>
      <trkpt lat="45.35719" lon="5.90803">
        <ele>1300.458984375</ele>
        <time>2017-12-19T13:05:12Z</time>
      </trkpt>
      <trkpt lat="45.35722" lon="5.90809">
        <ele>1299.458984375</ele>
        <time>2017-12-19T13:05:14Z</time>
      </trkpt>
      <trkpt lat="45.35726" lon="5.90813">
        <ele>1298.458984375</ele>
        <time>2017-12-19T13:05:16Z</time>
      </trkpt>
      <trkpt lat="45.35731" lon="5.9082">
        <ele>1298.458984375</ele>
        <time>2017-12-19T13:05:18Z</time>
      </trkpt>
      <trkpt lat="45.35738" lon="5.90827">
        <ele>1298.458984375</ele>
        <time>2017-12-19T13:05:20Z</time>
      </trkpt>
      <trkpt lat="45.35743" lon="5.90834">
        <ele>1296.458984375</ele>
        <time>2017-12-19T13:05:22Z</time>
      </trkpt>
      <trkpt lat="45.35742" lon="5.90841">
        <ele>1296.458984375</ele>
        <time>2017-12-19T13:05:24Z</time>
      </trkpt>
      <trkpt lat="45.35741" lon="5.90847">
        <ele>1295.458984375</ele>
        <time>2017-12-19T13:05:33Z</time>
      </trkpt>
      <trkpt lat="45.35742" lon="5.90854">
        <ele>1293.458984375</ele>
        <time>2017-12-19T13:05:36Z</time>
      </trkpt>
      <trkpt lat="45.35745" lon="5.90861">
        <ele>1292.458984375</ele>
        <time>2017-12-19T13:05:38Z</time>
      </trkpt>
      <trkpt lat="45.35749" lon="5.90866">
        <ele>1292.458984375</ele>
        <time>2017-12-19T13:05:45Z</time>
      </trkpt>
      <trkpt lat="45.35757" lon="5.90872">
        <ele>1291.458984375</ele>
        <time>2017-12-19T13:05:47Z</time>
      </trkpt>
      <trkpt lat="45.35764" lon="5.90882">
        <ele>1290.458984375</ele>
        <time>2017-12-19T13:05:50Z</time>
      </trkpt>
      <trkpt lat="45.35763" lon="5.9089">
        <ele>1287.458984375</ele>
        <time>2017-12-19T13:05:52Z</time>
      </trkpt>
      <trkpt lat="45.35757" lon="5.90898">
        <ele>1284.458984375</ele>
        <time>2017-12-19T13:06:02Z</time>
      </trkpt>
      <trkpt lat="45.35751" lon="5.90901">
        <ele>1282.458984375</ele>
        <time>2017-12-19T13:06:04Z</time>
      </trkpt>
      <trkpt lat="45.35739" lon="5.909">
        <ele>1278.458984375</ele>
        <time>2017-12-19T13:06:06Z</time>
      </trkpt>
      <trkpt lat="45.35727" lon="5.90893">
        <ele>1278.458984375</ele>
        <time>2017-12-19T13:06:08Z</time>
      </trkpt>
      <trkpt lat="45.35714" lon="5.90884">
        <ele>1273.458984375</ele>
        <time>2017-12-19T13:06:10Z</time>
      </trkpt>
      <trkpt lat="45.35703" lon="5.90879">
        <ele>1270.458984375</ele>
        <time>2017-12-19T13:06:12Z</time>
      </trkpt>
      <trkpt lat="45.35695" lon="5.90885">
        <ele>1269.458984375</ele>
        <time>2017-12-19T13:06:14Z</time>
      </trkpt>
      <trkpt lat="45.35699" lon="5.909">
        <ele>1267.458984375</ele>
        <time>2017-12-19T13:06:16Z</time>
      </trkpt>
      <trkpt lat="45.357" lon="5.90906">
        <ele>1265.458984375</ele>
        <time>2017-12-19T13:06:17Z</time>
      </trkpt>
      <trkpt lat="45.35701" lon="5.90927">
        <ele>1261.458984375</ele>
        <time>2017-12-19T13:06:19Z</time>
      </trkpt>
      <trkpt lat="45.357" lon="5.90956">
        <ele>1260.458984375</ele>
        <time>2017-12-19T13:06:21Z</time>
      </trkpt>
      <trkpt lat="45.35697" lon="5.90998">
        <ele>1256.4599609375</ele>
        <time>2017-12-19T13:06:23Z</time>
      </trkpt>
      <trkpt lat="45.35703" lon="5.91014">
        <ele>1249.4599609375</ele>
        <time>2017-12-19T13:06:24Z</time>
      </trkpt>
      <trkpt lat="45.35707" lon="5.91058">
        <ele>1242.4599609375</ele>
        <time>2017-12-19T13:06:26Z</time>
      </trkpt>
      <trkpt lat="45.35719" lon="5.91091">
        <ele>1235.4599609375</ele>
        <time>2017-12-19T13:06:28Z</time>
      </trkpt>
      <trkpt lat="45.35719" lon="5.9113">
        <ele>1230.4599609375</ele>
        <time>2017-12-19T13:06:30Z</time>
      </trkpt>
      <trkpt lat="45.35726" lon="5.91171">
        <ele>1226.4599609375</ele>
        <time>2017-12-19T13:06:32Z</time>
      </trkpt>
      <trkpt lat="45.35735" lon="5.91216">
        <ele>1224.4599609375</ele>
        <time>2017-12-19T13:06:34Z</time>
      </trkpt>
      <trkpt lat="45.35736" lon="5.91258">
        <ele>1222.4599609375</ele>
        <time>2017-12-19T13:06:36Z</time>
      </trkpt>
      <trkpt lat="45.35724" lon="5.91305">
        <ele>1220.4599609375</ele>
        <time>2017-12-19T13:06:38Z</time>
      </trkpt>
      <trkpt lat="45.35713" lon="5.91343">
        <ele>1217.4599609375</ele>
        <time>2017-12-19T13:06:40Z</time>
      </trkpt>
      <trkpt lat="45.35701" lon="5.91392">
        <ele>1214.4599609375</ele>
        <time>2017-12-19T13:06:42Z</time>
      </trkpt>
      <trkpt lat="45.35723" lon="5.91369">
        <ele>1194.4599609375</ele>
        <time>2017-12-19T13:06:43Z</time>
      </trkpt>
      <trkpt lat="45.35721" lon="5.91388">
        <ele>1183.4599609375</ele>
        <time>2017-12-19T13:06:45Z</time>
      </trkpt>
      <trkpt lat="45.35712" lon="5.9143">
        <ele>1178.4599609375</ele>
        <time>2017-12-19T13:06:47Z</time>
      </trkpt>
      <trkpt lat="45.35707" lon="5.91446">
        <ele>1177.4599609375</ele>
        <time>2017-12-19T13:06:48Z</time>
      </trkpt>
      <trkpt lat="45.35702" lon="5.9147">
        <ele>1169.4599609375</ele>
        <time>2017-12-19T13:06:50Z</time>
      </trkpt>
      <trkpt lat="45.35704" lon="5.91494">
        <ele>1159.4599609375</ele>
        <time>2017-12-19T13:06:52Z</time>
      </trkpt>
      <trkpt lat="45.357" lon="5.91507">
        <ele>1154.4599609375</ele>
        <time>2017-12-19T13:06:53Z</time>
      </trkpt>
      <trkpt lat="45.35687" lon="5.91531">
        <ele>1145.4599609375</ele>
        <time>2017-12-19T13:06:55Z</time>
      </trkpt>
      <trkpt lat="45.35669" lon="5.91551">
        <ele>1140.4599609375</ele>
        <time>2017-12-19T13:06:57Z</time>
      </trkpt>
      <trkpt lat="45.3565" lon="5.91576">
        <ele>1135.4599609375</ele>
        <time>2017-12-19T13:06:59Z</time>
      </trkpt>
      <trkpt lat="45.3564" lon="5.91584">
        <ele>1133.4599609375</ele>
        <time>2017-12-19T13:07:01Z</time>
      </trkpt>
      <trkpt lat="45.35645" lon="5.91587">
        <ele>1131.4599609375</ele>
        <time>2017-12-19T13:07:02Z</time>
      </trkpt>
      <trkpt lat="45.35646" lon="5.91598">
        <ele>1128.4599609375</ele>
        <time>2017-12-19T13:07:04Z</time>
      </trkpt>
      <trkpt lat="45.35644" lon="5.9161">
        <ele>1125.4599609375</ele>
        <time>2017-12-19T13:07:06Z</time>
      </trkpt>
      <trkpt lat="45.35648" lon="5.91634">
        <ele>1117.4599609375</ele>
        <time>2017-12-19T13:07:09Z</time>
      </trkpt>
      <trkpt lat="45.35644" lon="5.91654">
        <ele>1114.4599609375</ele>
        <time>2017-12-19T13:07:11Z</time>
      </trkpt>
      <trkpt lat="45.35636" lon="5.91664">
        <ele>1112.4599609375</ele>
        <time>2017-12-19T13:07:13Z</time>
      </trkpt>
      <trkpt lat="45.35632" lon="5.91668">
        <ele>1111.4599609375</ele>
        <time>2017-12-19T13:07:14Z</time>
      </trkpt>
      <trkpt lat="45.35625" lon="5.91677">
        <ele>1107.4599609375</ele>
        <time>2017-12-19T13:07:16Z</time>
      </trkpt>
      <trkpt lat="45.35617" lon="5.91693">
        <ele>1103.4599609375</ele>
        <time>2017-12-19T13:07:18Z</time>
      </trkpt>
      <trkpt lat="45.35606" lon="5.9171">
        <ele>1099.4599609375</ele>
        <time>2017-12-19T13:07:20Z</time>
      </trkpt>
      <trkpt lat="45.35596" lon="5.9172">
        <ele>1097.4599609375</ele>
        <time>2017-12-19T13:07:24Z</time>
      </trkpt>
      <trkpt lat="45.35593" lon="5.9173">
        <ele>1096.4599609375</ele>
        <time>2017-12-19T13:07:26Z</time>
      </trkpt>
      <trkpt lat="45.35594" lon="5.91745">
        <ele>1095.4599609375</ele>
        <time>2017-12-19T13:07:28Z</time>
      </trkpt>
      <trkpt lat="45.35599" lon="5.91762">
        <ele>1095.4599609375</ele>
        <time>2017-12-19T13:07:30Z</time>
      </trkpt>
      <trkpt lat="45.35601" lon="5.91784">
        <ele>1096.4599609375</ele>
        <time>2017-12-19T13:07:32Z</time>
      </trkpt>
      <trkpt lat="45.35603" lon="5.91795">
        <ele>1095.4599609375</ele>
        <time>2017-12-19T13:07:33Z</time>
      </trkpt>
      <trkpt lat="45.35604" lon="5.91819">
        <ele>1091.4599609375</ele>
        <time>2017-12-19T13:07:35Z</time>
      </trkpt>
      <trkpt lat="45.35598" lon="5.91838">
        <ele>1089.4599609375</ele>
        <time>2017-12-19T13:07:37Z</time>
      </trkpt>
      <trkpt lat="45.35598" lon="5.91847">
        <ele>1089.4599609375</ele>
        <time>2017-12-19T13:07:38Z</time>
      </trkpt>
      <trkpt lat="45.35598" lon="5.91862">
        <ele>1084.4599609375</ele>
        <time>2017-12-19T13:07:41Z</time>
      </trkpt>
      <trkpt lat="45.35596" lon="5.91871">
        <ele>1081.4599609375</ele>
        <time>2017-12-19T13:07:44Z</time>
      </trkpt>
      <trkpt lat="45.35594" lon="5.9188">
        <ele>1075.4599609375</ele>
        <time>2017-12-19T13:08:00Z</time>
      </trkpt>
      <trkpt lat="45.35596" lon="5.91886">
        <ele>1075.4599609375</ele>
        <time>2017-12-19T13:08:04Z</time>
      </trkpt>
      <trkpt lat="45.35599" lon="5.91892">
        <ele>1075.4599609375</ele>
        <time>2017-12-19T13:08:08Z</time>
      </trkpt>
      <trkpt lat="45.35601" lon="5.91899">
        <ele>1073.4599609375</ele>
        <time>2017-12-19T13:08:13Z</time>
      </trkpt>
      <trkpt lat="45.35603" lon="5.91905">
        <ele>1073.4610595703</ele>
        <time>2017-12-19T13:08:20Z</time>
      </trkpt>
      <trkpt lat="45.35607" lon="5.9191">
        <ele>1073.4610595703</ele>
        <time>2017-12-19T13:08:25Z</time>
      </trkpt>
      <trkpt lat="45.35611" lon="5.91907">
        <ele>1072.4610595703</ele>
        <time>2017-12-19T13:09:35Z</time>
      </trkpt>
    </trkseg>
  </trk>
</gpx>